<?xml version="1.0" encoding="UTF-8" standalone="no" ?>
<gpx xmlns="http://www.topografix.com/GPX/1/1" xmlns:xsi="http://www.w3.org/2001/XMLSchema-instance" xsi:schemaLocation="http://www.topografix.com/GPX/1/1 http://www.topografix.com/GPX/1/1/gpx.xsd" version="1.1" creator="VisuGPX - https://www.visugpx.com">
  <metadata>
    <name>juvignac oppidum st georges</name>
  </metadata>
  <trk>
    <name><![CDATA[juvignac oppidum st georges]]></name>
    <extensions>
      <line xmlns="http://www.topografix.com/GPX/gpx_style/0/2">
        <color>0000FF</color>
        <width>4</width>
      </line>
    </extensions>
    <trkseg>
      <trkpt lat="43.61595" lon="3.8197">
        <ele>39.9</ele>
        <time>2022-06-08T15:31:35.000Z</time>
        <extensions>
          <visugpx:TrkExtension xmlns:visugpx="https://www.visugpx.com/editgpx/">
            <visugpx:node>5</visugpx:node>
            </visugpx:TrkExtension>
        </extensions>
      </trkpt>
      <trkpt lat="43.61575" lon="3.81915">
        <ele>38.7</ele>
        <time>2022-06-08T15:31:38.719Z</time>
      </trkpt>
      <trkpt lat="43.61566" lon="3.81881">
        <ele>38</ele>
        <time>2022-06-08T15:31:41.189Z</time>
      </trkpt>
      <trkpt lat="43.61563" lon="3.81857">
        <ele>37.1</ele>
        <time>2022-06-08T15:31:44.405Z</time>
      </trkpt>
      <trkpt lat="43.61561" lon="3.81848">
        <ele>37.4</ele>
        <time>2022-06-08T15:31:46.700Z</time>
      </trkpt>
      <trkpt lat="43.61559" lon="3.81839">
        <ele>37.7</ele>
        <time>2022-06-08T15:31:49.180Z</time>
      </trkpt>
      <trkpt lat="43.61558" lon="3.81833">
        <ele>37.9</ele>
        <time>2022-06-08T15:31:50.997Z</time>
      </trkpt>
      <trkpt lat="43.61559" lon="3.81827">
        <ele>37.6</ele>
        <time>2022-06-08T15:31:53.386Z</time>
      </trkpt>
      <trkpt lat="43.61555" lon="3.81815">
        <ele>37.3</ele>
        <time>2022-06-08T15:31:54.770Z</time>
      </trkpt>
      <trkpt lat="43.61554" lon="3.81808">
        <ele>37.1</ele>
        <time>2022-06-08T15:31:55.465Z</time>
      </trkpt>
      <trkpt lat="43.61539" lon="3.81756">
        <ele>36.5</ele>
        <time>2022-06-08T15:32:02.541Z</time>
      </trkpt>
      <trkpt lat="43.61521" lon="3.8169">
        <ele>33.3</ele>
        <time>2022-06-08T15:32:08.121Z</time>
      </trkpt>
      <trkpt lat="43.61502" lon="3.8162">
        <ele>38</ele>
        <time>2022-06-08T15:32:44.476Z</time>
      </trkpt>
      <trkpt lat="43.615" lon="3.81622">
        <ele>38</ele>
        <time>2022-06-08T15:32:45.196Z</time>
      </trkpt>
      <trkpt lat="43.61496" lon="3.81599">
        <ele>37.8</ele>
        <time>2022-06-08T15:32:46.044Z</time>
      </trkpt>
      <trkpt lat="43.61493" lon="3.81578">
        <ele>38.3</ele>
        <time>2022-06-08T15:32:54.349Z</time>
      </trkpt>
      <trkpt lat="43.61491" lon="3.81553">
        <ele>39.4</ele>
        <time>2022-06-08T15:33:00.404Z</time>
      </trkpt>
      <trkpt lat="43.61472" lon="3.81522">
        <ele>39.9</ele>
      </trkpt>
      <trkpt lat="43.61416" lon="3.81323">
        <ele>44.3</ele>
      </trkpt>
      <trkpt lat="43.61398" lon="3.81125">
        <ele>49</ele>
        <time>2022-06-08T15:35:37.254Z</time>
      </trkpt>
      <trkpt lat="43.61397" lon="3.81091">
        <ele>49.3</ele>
        <time>2022-06-08T15:36:11.122Z</time>
      </trkpt>
      <trkpt lat="43.61399" lon="3.81089">
        <ele>49.4</ele>
        <time>2022-06-08T15:36:12.266Z</time>
      </trkpt>
      <trkpt lat="43.61402" lon="3.81086">
        <ele>49.5</ele>
        <time>2022-06-08T15:36:13.700Z</time>
      </trkpt>
      <trkpt lat="43.61404" lon="3.81079">
        <ele>49.7</ele>
        <time>2022-06-08T15:36:16.092Z</time>
      </trkpt>
      <trkpt lat="43.61403" lon="3.81074">
        <ele>49.8</ele>
        <time>2022-06-08T15:36:17.540Z</time>
      </trkpt>
      <trkpt lat="43.61416" lon="3.81062">
        <ele>50.7</ele>
        <time>2022-06-08T15:36:25.923Z</time>
      </trkpt>
      <trkpt lat="43.61413" lon="3.81054">
        <ele>50.9</ele>
        <time>2022-06-08T15:36:28.566Z</time>
      </trkpt>
      <trkpt lat="43.61411" lon="3.81054">
        <ele>50.9</ele>
        <time>2022-06-08T15:36:29.149Z</time>
      </trkpt>
      <trkpt lat="43.61404" lon="3.81049">
        <ele>50.8</ele>
        <time>2022-06-08T15:36:30.562Z</time>
      </trkpt>
      <trkpt lat="43.614" lon="3.81044">
        <ele>50.8</ele>
        <time>2022-06-08T15:36:32.135Z</time>
      </trkpt>
      <trkpt lat="43.61398" lon="3.81038">
        <ele>51</ele>
        <time>2022-06-08T15:36:34.394Z</time>
      </trkpt>
      <trkpt lat="43.61383" lon="3.80895">
        <ele>54.6</ele>
        <time>2022-06-08T15:37:18.915Z</time>
      </trkpt>
      <trkpt lat="43.61378" lon="3.80804">
        <ele>54.4</ele>
        <time>2022-06-08T15:37:37.317Z</time>
      </trkpt>
      <trkpt lat="43.61379" lon="3.80769">
        <ele>54.5</ele>
        <time>2022-06-08T15:37:44.984Z</time>
      </trkpt>
      <trkpt lat="43.61381" lon="3.80732">
        <ele>54.4</ele>
        <time>2022-06-08T15:37:52.391Z</time>
      </trkpt>
      <trkpt lat="43.61387" lon="3.80691">
        <ele>54.9</ele>
        <time>2022-06-08T15:38:02.789Z</time>
      </trkpt>
      <trkpt lat="43.61388" lon="3.80674">
        <ele>54.9</ele>
        <time>2022-06-08T15:38:06.388Z</time>
      </trkpt>
      <trkpt lat="43.61391" lon="3.80635">
        <ele>55.2</ele>
        <time>2022-06-08T15:38:15.550Z</time>
      </trkpt>
      <trkpt lat="43.61395" lon="3.80624">
        <ele>55.8</ele>
        <time>2022-06-08T15:38:20.672Z</time>
      </trkpt>
      <trkpt lat="43.61397" lon="3.80601">
        <ele>56.3</ele>
        <time>2022-06-08T15:38:27.396Z</time>
      </trkpt>
      <trkpt lat="43.61393" lon="3.8059">
        <ele>56.1</ele>
        <time>2022-06-08T15:38:28.817Z</time>
      </trkpt>
      <trkpt lat="43.61394" lon="3.80576">
        <ele>56.4</ele>
        <time>2022-06-08T15:38:32.882Z</time>
      </trkpt>
      <trkpt lat="43.61395" lon="3.8057">
        <ele>56.6</ele>
        <time>2022-06-08T15:38:35.080Z</time>
      </trkpt>
      <trkpt lat="43.614" lon="3.80561">
        <ele>56.9</ele>
        <time>2022-06-08T15:38:38.677Z</time>
      </trkpt>
      <trkpt lat="43.61406" lon="3.80455">
        <ele>58.2</ele>
        <time>2022-06-08T15:39:05.216Z</time>
      </trkpt>
      <trkpt lat="43.61404" lon="3.80447">
        <ele>58.4</ele>
        <time>2022-06-08T15:39:07.763Z</time>
      </trkpt>
      <trkpt lat="43.6141" lon="3.80389">
        <ele>59.5</ele>
        <time>2022-06-08T15:39:23.976Z</time>
      </trkpt>
      <trkpt lat="43.61405" lon="3.80376">
        <ele>60.3</ele>
        <time>2022-06-08T15:39:30.474Z</time>
      </trkpt>
      <trkpt lat="43.61411" lon="3.80293">
        <ele>61.3</ele>
        <time>2022-06-08T15:39:51.221Z</time>
      </trkpt>
      <trkpt lat="43.61416" lon="3.8025">
        <ele>62</ele>
        <time>2022-06-08T15:40:02.755Z</time>
      </trkpt>
      <trkpt lat="43.6144" lon="3.80124">
        <ele>64.5</ele>
        <time>2022-06-08T15:40:39.058Z</time>
      </trkpt>
      <trkpt lat="43.61454" lon="3.80068">
        <ele>65.7</ele>
        <time>2022-06-08T15:40:55.865Z</time>
      </trkpt>
      <trkpt lat="43.61458" lon="3.80062">
        <ele>65.9</ele>
        <time>2022-06-08T15:40:58.360Z</time>
      </trkpt>
      <trkpt lat="43.61466" lon="3.80058">
        <ele>66</ele>
        <time>2022-06-08T15:41:01.139Z</time>
      </trkpt>
      <trkpt lat="43.61468" lon="3.80054">
        <ele>66</ele>
        <time>2022-06-08T15:41:02.165Z</time>
      </trkpt>
      <trkpt lat="43.61464" lon="3.80048">
        <ele>66.2</ele>
        <time>2022-06-08T15:41:04.660Z</time>
      </trkpt>
      <trkpt lat="43.61461" lon="3.80044">
        <ele>66.2</ele>
        <time>2022-06-08T15:41:05.875Z</time>
      </trkpt>
      <trkpt lat="43.61462" lon="3.8004">
        <ele>66.4</ele>
        <time>2022-06-08T15:41:07.610Z</time>
      </trkpt>
      <trkpt lat="43.61461" lon="3.80035">
        <ele>66.4</ele>
        <time>2022-06-08T15:41:08.704Z</time>
      </trkpt>
      <trkpt lat="43.6146" lon="3.80033">
        <ele>66.5</ele>
        <time>2022-06-08T15:41:09.643Z</time>
      </trkpt>
      <trkpt lat="43.61456" lon="3.80029">
        <ele>66.4</ele>
        <time>2022-06-08T15:41:10.450Z</time>
      </trkpt>
      <trkpt lat="43.61453" lon="3.80029">
        <ele>66.3</ele>
        <time>2022-06-08T15:41:10.876Z</time>
      </trkpt>
      <trkpt lat="43.61451" lon="3.80031">
        <ele>66.2</ele>
        <time>2022-06-08T15:41:11.202Z</time>
      </trkpt>
      <trkpt lat="43.61449" lon="3.80033">
        <ele>66.1</ele>
        <time>2022-06-08T15:41:11.529Z</time>
      </trkpt>
      <trkpt lat="43.61447" lon="3.80036">
        <ele>66.1</ele>
        <time>2022-06-08T15:41:12.389Z</time>
      </trkpt>
      <trkpt lat="43.61447" lon="3.80039">
        <ele>66.1</ele>
        <time>2022-06-08T15:41:13.022Z</time>
      </trkpt>
      <trkpt lat="43.61447" lon="3.80041">
        <ele>66</ele>
        <time>2022-06-08T15:41:13.189Z</time>
        <extensions>
          <visugpx:TrkExtension xmlns:visugpx="https://www.visugpx.com/editgpx/">
            <visugpx:node>2</visugpx:node>
            </visugpx:TrkExtension>
        </extensions>
      </trkpt>
      <trkpt lat="43.61448" lon="3.80043">
        <ele>66.1</ele>
        <time>2022-06-08T15:41:14.128Z</time>
      </trkpt>
      <trkpt lat="43.61449" lon="3.80046">
        <ele>66.1</ele>
        <time>2022-06-08T15:41:14.825Z</time>
      </trkpt>
      <trkpt lat="43.61452" lon="3.80048">
        <ele>66.1</ele>
        <time>2022-06-08T15:41:15.796Z</time>
      </trkpt>
      <trkpt lat="43.61455" lon="3.80049">
        <ele>66.1</ele>
        <time>2022-06-08T15:41:16.695Z</time>
      </trkpt>
      <trkpt lat="43.61458" lon="3.80047">
        <ele>66.2</ele>
        <time>2022-06-08T15:41:18.034Z</time>
      </trkpt>
      <trkpt lat="43.61461" lon="3.80044">
        <ele>66.2</ele>
        <time>2022-06-08T15:41:19.114Z</time>
      </trkpt>
      <trkpt lat="43.61462" lon="3.8004">
        <ele>66.4</ele>
        <time>2022-06-08T15:41:20.848Z</time>
      </trkpt>
      <trkpt lat="43.61461" lon="3.80035">
        <ele>66.4</ele>
        <time>2022-06-08T15:41:21.943Z</time>
      </trkpt>
      <trkpt lat="43.6146" lon="3.80033">
        <ele>66.5</ele>
        <time>2022-06-08T15:41:22.882Z</time>
      </trkpt>
      <trkpt lat="43.61456" lon="3.80029">
        <ele>66.4</ele>
        <time>2022-06-08T15:41:23.689Z</time>
      </trkpt>
      <trkpt lat="43.61453" lon="3.80029">
        <ele>66.3</ele>
        <time>2022-06-08T15:41:24.114Z</time>
      </trkpt>
      <trkpt lat="43.61451" lon="3.80031">
        <ele>66.2</ele>
        <time>2022-06-08T15:41:24.441Z</time>
      </trkpt>
      <trkpt lat="43.61449" lon="3.80033">
        <ele>66.1</ele>
        <time>2022-06-08T15:41:24.767Z</time>
      </trkpt>
      <trkpt lat="43.61447" lon="3.80036">
        <ele>66.1</ele>
        <time>2022-06-08T15:41:25.628Z</time>
      </trkpt>
      <trkpt lat="43.61442" lon="3.80032">
        <ele>65.8</ele>
        <time>2022-06-08T15:41:26.317Z</time>
      </trkpt>
      <trkpt lat="43.61439" lon="3.80028">
        <ele>65.6</ele>
        <time>2022-06-08T15:41:26.832Z</time>
      </trkpt>
      <trkpt lat="43.61437" lon="3.80025">
        <ele>65.5</ele>
        <time>2022-06-08T15:41:27.248Z</time>
      </trkpt>
      <trkpt lat="43.61434" lon="3.80016">
        <ele>65.2</ele>
        <time>2022-06-08T15:41:28.185Z</time>
      </trkpt>
      <trkpt lat="43.61428" lon="3.79986">
        <ele>64.2</ele>
        <time>2022-06-08T15:41:31.058Z</time>
      </trkpt>
      <trkpt lat="43.61405" lon="3.79933">
        <ele>63.6</ele>
        <time>2022-06-08T15:41:39.008Z</time>
      </trkpt>
      <trkpt lat="43.6138" lon="3.79885">
        <ele>63.2</ele>
        <time>2022-06-08T15:41:47.031Z</time>
      </trkpt>
      <trkpt lat="43.61376" lon="3.79877">
        <ele>63.2</ele>
        <time>2022-06-08T15:41:49.082Z</time>
      </trkpt>
      <trkpt lat="43.61375" lon="3.79873">
        <ele>63.2</ele>
        <time>2022-06-08T15:41:49.975Z</time>
        <extensions>
          <visugpx:TrkExtension xmlns:visugpx="https://www.visugpx.com/editgpx/">
            <visugpx:node>3</visugpx:node>
            </visugpx:TrkExtension>
        </extensions>
      </trkpt>
      <trkpt lat="43.61376" lon="3.79877">
        <ele>63.2</ele>
        <time>2022-06-08T15:41:50.868Z</time>
      </trkpt>
      <trkpt lat="43.6138" lon="3.79868">
        <ele>62.8</ele>
        <time>2022-06-08T15:41:51.777Z</time>
      </trkpt>
      <trkpt lat="43.61391" lon="3.79842">
        <ele>61.9</ele>
        <time>2022-06-08T15:41:54.638Z</time>
      </trkpt>
      <trkpt lat="43.61393" lon="3.79827">
        <ele>61.6</ele>
        <time>2022-06-08T15:41:56.308Z</time>
      </trkpt>
      <trkpt lat="43.61393" lon="3.79816">
        <ele>61.2</ele>
        <time>2022-06-08T15:41:57.272Z</time>
      </trkpt>
      <trkpt lat="43.61395" lon="3.79806">
        <ele>60.8</ele>
        <time>2022-06-08T15:41:58.158Z</time>
      </trkpt>
      <trkpt lat="43.61395" lon="3.79802">
        <ele>60.7</ele>
        <time>2022-06-08T15:41:58.564Z</time>
      </trkpt>
      <trkpt lat="43.61404" lon="3.79769">
        <ele>59.5</ele>
        <time>2022-06-08T15:42:01.744Z</time>
      </trkpt>
      <trkpt lat="43.61409" lon="3.7975">
        <ele>58.3</ele>
        <time>2022-06-08T15:42:03.437Z</time>
      </trkpt>
      <trkpt lat="43.61439" lon="3.79651">
        <ele>54.7</ele>
        <time>2022-06-08T15:42:13.172Z</time>
      </trkpt>
      <trkpt lat="43.61452" lon="3.79568">
        <ele>52.7</ele>
        <time>2022-06-08T15:42:21.961Z</time>
      </trkpt>
      <trkpt lat="43.61452" lon="3.79554">
        <ele>52.3</ele>
        <time>2022-06-08T15:42:23.314Z</time>
      </trkpt>
      <trkpt lat="43.61452" lon="3.79548">
        <ele>52.3</ele>
        <time>2022-06-08T15:42:24.580Z</time>
      </trkpt>
      <trkpt lat="43.61461" lon="3.79436">
        <ele>52.4</ele>
        <time>2022-06-08T15:42:48.627Z</time>
      </trkpt>
      <trkpt lat="43.61464" lon="3.79409">
        <ele>52.9</ele>
        <time>2022-06-08T15:42:56.127Z</time>
      </trkpt>
      <trkpt lat="43.61469" lon="3.79388">
        <ele>52.2</ele>
        <time>2022-06-08T15:42:58.180Z</time>
      </trkpt>
      <trkpt lat="43.61496" lon="3.79311">
        <ele>54</ele>
        <time>2022-06-08T15:43:22.780Z</time>
      </trkpt>
      <trkpt lat="43.61517" lon="3.79239">
        <ele>55.2</ele>
        <time>2022-06-08T15:43:43.140Z</time>
      </trkpt>
      <trkpt lat="43.61524" lon="3.79206">
        <ele>55.1</ele>
        <time>2022-06-08T15:43:49.974Z</time>
      </trkpt>
      <trkpt lat="43.61538" lon="3.79158">
        <ele>55.5</ele>
        <time>2022-06-08T15:44:02.076Z</time>
      </trkpt>
      <trkpt lat="43.61539" lon="3.79156">
        <ele>55.7</ele>
        <time>2022-06-08T15:44:03.615Z</time>
      </trkpt>
      <trkpt lat="43.61542" lon="3.79153">
        <ele>56</ele>
        <time>2022-06-08T15:44:05.983Z</time>
      </trkpt>
      <trkpt lat="43.61542" lon="3.79145">
        <ele>56.3</ele>
        <time>2022-06-08T15:44:08.970Z</time>
        <extensions>
          <visugpx:TrkExtension xmlns:visugpx="https://www.visugpx.com/editgpx/">
            <visugpx:node>4</visugpx:node>
            </visugpx:TrkExtension>
        </extensions>
      </trkpt>
      <trkpt lat="43.61564" lon="3.79018">
        <ele>58.9</ele>
        <time>2022-06-08T15:44:45.879Z</time>
        <extensions>
          <visugpx:TrkExtension xmlns:visugpx="https://www.visugpx.com/editgpx/">
            <visugpx:node>6</visugpx:node>
            </visugpx:TrkExtension>
        </extensions>
      </trkpt>
      <trkpt lat="43.61559" lon="3.7892">
        <ele>57</ele>
        <time>2022-06-08T15:44:56.634Z</time>
        <extensions>
          <visugpx:TrkExtension xmlns:visugpx="https://www.visugpx.com/editgpx/">
            <visugpx:node>7</visugpx:node>
            </visugpx:TrkExtension>
        </extensions>
      </trkpt>
      <trkpt lat="43.61545" lon="3.7882">
        <ele>59.9</ele>
        <time>2022-06-08T15:45:30.222Z</time>
        <extensions>
          <visugpx:TrkExtension xmlns:visugpx="https://www.visugpx.com/editgpx/">
            <visugpx:node>8</visugpx:node>
            </visugpx:TrkExtension>
        </extensions>
      </trkpt>
      <trkpt lat="43.61635" lon="3.78657">
        <ele>67.8</ele>
        <time>2022-06-08T15:46:47.515Z</time>
        <extensions>
          <visugpx:TrkExtension xmlns:visugpx="https://www.visugpx.com/editgpx/">
            <visugpx:node>9</visugpx:node>
            </visugpx:TrkExtension>
        </extensions>
      </trkpt>
      <trkpt lat="43.6164" lon="3.78649">
        <ele>68.5</ele>
        <time>2022-06-08T15:46:52.900Z</time>
      </trkpt>
      <trkpt lat="43.61669" lon="3.7861">
        <ele>71.1</ele>
        <time>2022-06-08T15:47:15.647Z</time>
      </trkpt>
      <trkpt lat="43.6168" lon="3.78586">
        <ele>73.7</ele>
        <time>2022-06-08T15:47:36.639Z</time>
      </trkpt>
      <trkpt lat="43.61692" lon="3.78563">
        <ele>75.3</ele>
        <time>2022-06-08T15:47:49.443Z</time>
      </trkpt>
      <trkpt lat="43.61706" lon="3.78536">
        <ele>77.4</ele>
        <time>2022-06-08T15:48:05.664Z</time>
      </trkpt>
      <trkpt lat="43.61711" lon="3.78527">
        <ele>78.1</ele>
        <time>2022-06-08T15:48:11.105Z</time>
      </trkpt>
      <trkpt lat="43.61725" lon="3.78481">
        <ele>80.5</ele>
        <time>2022-06-08T15:48:31.735Z</time>
      </trkpt>
      <trkpt lat="43.61729" lon="3.78442">
        <ele>81.2</ele>
        <time>2022-06-08T15:48:42.457Z</time>
      </trkpt>
      <trkpt lat="43.61727" lon="3.7842">
        <ele>81.2</ele>
        <time>2022-06-08T15:48:47.135Z</time>
      </trkpt>
      <trkpt lat="43.61714" lon="3.78368">
        <ele>79.8</ele>
        <time>2022-06-08T15:48:52.680Z</time>
      </trkpt>
      <trkpt lat="43.61713" lon="3.78343">
        <ele>79.9</ele>
        <time>2022-06-08T15:48:58.244Z</time>
      </trkpt>
      <trkpt lat="43.61726" lon="3.78258">
        <ele>82.1</ele>
        <time>2022-06-08T15:49:25.215Z</time>
      </trkpt>
      <trkpt lat="43.61751" lon="3.78146">
        <ele>84.6</ele>
        <time>2022-06-08T15:49:59.083Z</time>
        <extensions>
          <visugpx:TrkExtension xmlns:visugpx="https://www.visugpx.com/editgpx/">
            <visugpx:node>10</visugpx:node>
            </visugpx:TrkExtension>
        </extensions>
      </trkpt>
      <trkpt lat="43.61751" lon="3.78145">
        <ele>84.6</ele>
        <time>2022-06-08T15:49:59.294Z</time>
      </trkpt>
      <trkpt lat="43.61757" lon="3.78124">
        <ele>85.1</ele>
        <time>2022-06-08T15:50:05.911Z</time>
      </trkpt>
      <trkpt lat="43.61766" lon="3.78102">
        <ele>85.4</ele>
        <time>2022-06-08T15:50:12.185Z</time>
      </trkpt>
      <trkpt lat="43.61775" lon="3.78084">
        <ele>86.1</ele>
        <time>2022-06-08T15:50:19.940Z</time>
      </trkpt>
      <trkpt lat="43.61807" lon="3.78052">
        <ele>85.2</ele>
        <time>2022-06-08T15:50:26.214Z</time>
      </trkpt>
      <trkpt lat="43.61818" lon="3.78037">
        <ele>85.4</ele>
        <time>2022-06-08T15:50:31.324Z</time>
      </trkpt>
      <trkpt lat="43.61835" lon="3.77979">
        <ele>87.8</ele>
        <time>2022-06-08T15:50:54.868Z</time>
      </trkpt>
      <trkpt lat="43.61837" lon="3.77961">
        <ele>88.8</ele>
        <time>2022-06-08T15:51:02.956Z</time>
      </trkpt>
      <trkpt lat="43.61837" lon="3.77871">
        <ele>90.8</ele>
        <time>2022-06-08T15:51:29.371Z</time>
        <extensions>
          <visugpx:TrkExtension xmlns:visugpx="https://www.visugpx.com/editgpx/">
            <visugpx:node>11</visugpx:node>
            </visugpx:TrkExtension>
        </extensions>
      </trkpt>
      <trkpt lat="43.61837" lon="3.77867">
        <ele>90.8</ele>
        <time>2022-06-08T15:51:30.215Z</time>
      </trkpt>
      <trkpt lat="43.61833" lon="3.77867">
        <ele>91</ele>
        <time>2022-06-08T15:51:32.253Z</time>
      </trkpt>
      <trkpt lat="43.6182" lon="3.77865">
        <ele>92.4</ele>
        <time>2022-06-08T15:51:42.895Z</time>
      </trkpt>
      <trkpt lat="43.61809" lon="3.77864">
        <ele>93.5</ele>
        <time>2022-06-08T15:51:51.232Z</time>
      </trkpt>
      <trkpt lat="43.61799" lon="3.77867">
        <ele>94</ele>
        <time>2022-06-08T15:51:56.408Z</time>
      </trkpt>
      <trkpt lat="43.61782" lon="3.77868">
        <ele>94.6</ele>
        <time>2022-06-08T15:52:03.733Z</time>
      </trkpt>
      <trkpt lat="43.61781" lon="3.77868">
        <ele>94.6</ele>
        <time>2022-06-08T15:52:04.024Z</time>
      </trkpt>
      <trkpt lat="43.6178" lon="3.77868">
        <ele>94.7</ele>
        <time>2022-06-08T15:52:04.782Z</time>
        <extensions>
          <visugpx:TrkExtension xmlns:visugpx="https://www.visugpx.com/editgpx/">
            <visugpx:node>12</visugpx:node>
            </visugpx:TrkExtension>
        </extensions>
      </trkpt>
      <trkpt lat="43.61904" lon="3.77437">
        <ele>102</ele>
        <time>2022-06-08T15:54:06.970Z</time>
        <extensions>
          <visugpx:TrkExtension xmlns:visugpx="https://www.visugpx.com/editgpx/">
            <visugpx:node>13</visugpx:node>
            </visugpx:TrkExtension>
        </extensions>
      </trkpt>
      <trkpt lat="43.61903" lon="3.77435">
        <ele>102.2</ele>
        <time>2022-06-08T15:54:08.464Z</time>
      </trkpt>
      <trkpt lat="43.61906" lon="3.77426">
        <ele>102.5</ele>
        <time>2022-06-08T15:54:11.852Z</time>
      </trkpt>
      <trkpt lat="43.61926" lon="3.77375">
        <ele>104.7</ele>
        <time>2022-06-08T15:54:33.590Z</time>
      </trkpt>
      <trkpt lat="43.62003" lon="3.77185">
        <ele>105.1</ele>
        <time>2022-06-08T15:55:20.623Z</time>
      </trkpt>
      <trkpt lat="43.62101" lon="3.7695">
        <ele>114.3</ele>
        <time>2022-06-08T15:56:58.652Z</time>
      </trkpt>
      <trkpt lat="43.62121" lon="3.76895">
        <ele>114</ele>
        <time>2022-06-08T15:57:10.422Z</time>
      </trkpt>
      <trkpt lat="43.62136" lon="3.76849">
        <ele>114.9</ele>
        <time>2022-06-08T15:57:24.169Z</time>
      </trkpt>
      <trkpt lat="43.62157" lon="3.76781">
        <ele>115.4</ele>
        <time>2022-06-08T15:57:41.225Z</time>
      </trkpt>
      <trkpt lat="43.62183" lon="3.76683">
        <ele>117.6</ele>
        <time>2022-06-08T15:58:11.254Z</time>
      </trkpt>
      <trkpt lat="43.62214" lon="3.76577">
        <ele>119</ele>
        <time>2022-06-08T15:58:39.795Z</time>
      </trkpt>
      <trkpt lat="43.62243" lon="3.76462">
        <ele>119.4</ele>
        <time>2022-06-08T15:59:06.600Z</time>
      </trkpt>
      <trkpt lat="43.62256" lon="3.76389">
        <ele>120.9</ele>
        <time>2022-06-08T15:59:27.816Z</time>
      </trkpt>
      <trkpt lat="43.62266" lon="3.76295">
        <ele>122.3</ele>
        <time>2022-06-08T15:59:52.453Z</time>
      </trkpt>
      <trkpt lat="43.62274" lon="3.76244">
        <ele>123.4</ele>
        <time>2022-06-08T16:00:07.467Z</time>
      </trkpt>
      <trkpt lat="43.62272" lon="3.76256">
        <ele>123.2</ele>
        <time>2022-06-08T16:00:08.888Z</time>
        <extensions>
          <visugpx:TrkExtension xmlns:visugpx="https://www.visugpx.com/editgpx/">
            <visugpx:node>14</visugpx:node>
            </visugpx:TrkExtension>
        </extensions>
      </trkpt>
      <trkpt lat="43.62274" lon="3.76244">
        <ele>123.4</ele>
        <time>2022-06-08T16:00:12.158Z</time>
      </trkpt>
      <trkpt lat="43.62274" lon="3.76207">
        <ele>123.9</ele>
        <time>2022-06-08T16:00:21.573Z</time>
      </trkpt>
      <trkpt lat="43.62274" lon="3.76206">
        <ele>123.9</ele>
        <time>2022-06-08T16:00:21.784Z</time>
        <extensions>
          <visugpx:TrkExtension xmlns:visugpx="https://www.visugpx.com/editgpx/">
            <visugpx:node>15</visugpx:node>
            </visugpx:TrkExtension>
        </extensions>
      </trkpt>
      <trkpt lat="43.62274" lon="3.76207">
        <ele>123.9</ele>
        <time>2022-06-08T16:00:21.995Z</time>
      </trkpt>
      <trkpt lat="43.62265" lon="3.76206">
        <ele>123.7</ele>
        <time>2022-06-08T16:00:23.439Z</time>
      </trkpt>
      <trkpt lat="43.62235" lon="3.76215">
        <ele>124.7</ele>
        <time>2022-06-08T16:00:36.191Z</time>
      </trkpt>
      <trkpt lat="43.6222" lon="3.76228">
        <ele>126.5</ele>
        <time>2022-06-08T16:00:49.830Z</time>
      </trkpt>
      <trkpt lat="43.62216" lon="3.76234">
        <ele>127.3</ele>
        <time>2022-06-08T16:00:56.467Z</time>
        <extensions>
          <visugpx:TrkExtension xmlns:visugpx="https://www.visugpx.com/editgpx/">
            <visugpx:node>16</visugpx:node>
            </visugpx:TrkExtension>
        </extensions>
      </trkpt>
      <trkpt lat="43.62197" lon="3.76233">
        <ele>130</ele>
        <time>2022-06-08T16:01:17.840Z</time>
      </trkpt>
      <trkpt lat="43.6219" lon="3.76228">
        <ele>130.9</ele>
        <time>2022-06-08T16:01:24.772Z</time>
      </trkpt>
      <trkpt lat="43.62176" lon="3.76248">
        <ele>134.2</ele>
        <time>2022-06-08T16:01:47.411Z</time>
      </trkpt>
      <trkpt lat="43.6216" lon="3.76258">
        <ele>137.6</ele>
        <time>2022-06-08T16:02:07.152Z</time>
      </trkpt>
      <trkpt lat="43.62139" lon="3.7628">
        <ele>143.1</ele>
        <time>2022-06-08T16:02:36.778Z</time>
      </trkpt>
      <trkpt lat="43.62094" lon="3.76288">
        <ele>153.4</ele>
        <time>2022-06-08T16:03:27.779Z</time>
      </trkpt>
      <trkpt lat="43.62069" lon="3.763">
        <ele>156.7</ele>
        <time>2022-06-08T16:03:54.190Z</time>
      </trkpt>
      <trkpt lat="43.6207" lon="3.76301">
        <ele>156.8</ele>
        <time>2022-06-08T16:03:54.980Z</time>
        <extensions>
          <visugpx:TrkExtension xmlns:visugpx="https://www.visugpx.com/editgpx/">
            <visugpx:node>17</visugpx:node>
            </visugpx:TrkExtension>
        </extensions>
      </trkpt>
      <trkpt lat="43.62069" lon="3.763">
        <ele>156.7</ele>
        <time>2022-06-08T16:03:55.123Z</time>
      </trkpt>
      <trkpt lat="43.62066" lon="3.76292">
        <ele>156.3</ele>
        <time>2022-06-08T16:03:55.843Z</time>
      </trkpt>
      <trkpt lat="43.62061" lon="3.76281">
        <ele>155.9</ele>
        <time>2022-06-08T16:03:57.062Z</time>
      </trkpt>
      <trkpt lat="43.6206" lon="3.76273">
        <ele>155.7</ele>
        <time>2022-06-08T16:03:57.890Z</time>
      </trkpt>
      <trkpt lat="43.62044" lon="3.76262">
        <ele>153.7</ele>
        <time>2022-06-08T16:03:59.957Z</time>
      </trkpt>
      <trkpt lat="43.62038" lon="3.76251">
        <ele>151.9</ele>
        <time>2022-06-08T16:04:01.111Z</time>
      </trkpt>
      <trkpt lat="43.62025" lon="3.76235">
        <ele>148.1</ele>
        <time>2022-06-08T16:04:03.125Z</time>
      </trkpt>
      <trkpt lat="43.62013" lon="3.76228">
        <ele>144.2</ele>
        <time>2022-06-08T16:04:04.632Z</time>
      </trkpt>
      <trkpt lat="43.61997" lon="3.76212">
        <ele>138.3</ele>
        <time>2022-06-08T16:04:06.917Z</time>
      </trkpt>
      <trkpt lat="43.61979" lon="3.76218">
        <ele>132.9</ele>
        <time>2022-06-08T16:04:09.059Z</time>
      </trkpt>
      <trkpt lat="43.61975" lon="3.76224">
        <ele>132.1</ele>
        <time>2022-06-08T16:04:09.742Z</time>
      </trkpt>
      <trkpt lat="43.61956" lon="3.76208">
        <ele>124.1</ele>
        <time>2022-06-08T16:04:12.316Z</time>
      </trkpt>
      <trkpt lat="43.6195" lon="3.76192">
        <ele>120</ele>
        <time>2022-06-08T16:04:13.825Z</time>
      </trkpt>
      <trkpt lat="43.61948" lon="3.76179">
        <ele>118.3</ele>
        <time>2022-06-08T16:04:14.938Z</time>
      </trkpt>
      <trkpt lat="43.61941" lon="3.76159">
        <ele>115.1</ele>
        <time>2022-06-08T16:04:16.798Z</time>
      </trkpt>
      <trkpt lat="43.61913" lon="3.7612">
        <ele>106.5</ele>
        <time>2022-06-08T16:04:21.398Z</time>
      </trkpt>
      <trkpt lat="43.61879" lon="3.76057">
        <ele>96.2</ele>
        <time>2022-06-08T16:04:27.979Z</time>
      </trkpt>
      <trkpt lat="43.61855" lon="3.76015">
        <ele>86</ele>
        <time>2022-06-08T16:04:32.460Z</time>
      </trkpt>
      <trkpt lat="43.61854" lon="3.76016">
        <ele>86</ele>
        <time>2022-06-08T16:04:32.819Z</time>
        <extensions>
          <visugpx:TrkExtension xmlns:visugpx="https://www.visugpx.com/editgpx/">
            <visugpx:node>18</visugpx:node>
            </visugpx:TrkExtension>
        </extensions>
      </trkpt>
      <trkpt lat="43.61855" lon="3.76015">
        <ele>86</ele>
        <time>2022-06-08T16:04:33.179Z</time>
      </trkpt>
      <trkpt lat="43.61882" lon="3.75978">
        <ele>85.3</ele>
        <time>2022-06-08T16:04:39.534Z</time>
      </trkpt>
      <trkpt lat="43.61926" lon="3.7593">
        <ele>86.6</ele>
        <time>2022-06-08T16:05:00.280Z</time>
      </trkpt>
      <trkpt lat="43.61933" lon="3.75922">
        <ele>86.3</ele>
        <time>2022-06-08T16:05:01.572Z</time>
      </trkpt>
      <trkpt lat="43.61941" lon="3.75906">
        <ele>84.7</ele>
        <time>2022-06-08T16:05:03.201Z</time>
      </trkpt>
      <trkpt lat="43.61947" lon="3.75899">
        <ele>83.9</ele>
        <time>2022-06-08T16:05:04.109Z</time>
      </trkpt>
      <trkpt lat="43.61956" lon="3.75901">
        <ele>84.5</ele>
        <time>2022-06-08T16:05:09.292Z</time>
      </trkpt>
      <trkpt lat="43.6196" lon="3.75892">
        <ele>82.3</ele>
        <time>2022-06-08T16:05:10.176Z</time>
      </trkpt>
      <trkpt lat="43.61966" lon="3.75891">
        <ele>81.8</ele>
        <time>2022-06-08T16:05:10.875Z</time>
      </trkpt>
      <trkpt lat="43.61975" lon="3.75897">
        <ele>83.4</ele>
        <time>2022-06-08T16:05:22.109Z</time>
      </trkpt>
      <trkpt lat="43.61985" lon="3.75908">
        <ele>85.1</ele>
        <time>2022-06-08T16:05:36.386Z</time>
      </trkpt>
      <trkpt lat="43.6199" lon="3.75909">
        <ele>84.6</ele>
        <time>2022-06-08T16:05:36.970Z</time>
      </trkpt>
      <trkpt lat="43.61998" lon="3.75905">
        <ele>82.6</ele>
        <time>2022-06-08T16:05:37.954Z</time>
      </trkpt>
      <trkpt lat="43.62015" lon="3.75902">
        <ele>82</ele>
        <time>2022-06-08T16:05:40.344Z</time>
      </trkpt>
      <trkpt lat="43.62027" lon="3.75905">
        <ele>81.9</ele>
        <time>2022-06-08T16:05:42.665Z</time>
      </trkpt>
      <trkpt lat="43.62048" lon="3.759">
        <ele>82.3</ele>
        <time>2022-06-08T16:05:50.164Z</time>
      </trkpt>
      <trkpt lat="43.62091" lon="3.75868">
        <ele>83.4</ele>
        <time>2022-06-08T16:06:08.098Z</time>
      </trkpt>
      <trkpt lat="43.62152" lon="3.75812">
        <ele>84.2</ele>
        <time>2022-06-08T16:06:31.816Z</time>
      </trkpt>
      <trkpt lat="43.6216" lon="3.75783">
        <ele>86.2</ele>
        <time>2022-06-08T16:06:47.197Z</time>
      </trkpt>
      <trkpt lat="43.62171" lon="3.75757">
        <ele>86.8</ele>
        <time>2022-06-08T16:06:55.692Z</time>
      </trkpt>
      <trkpt lat="43.62176" lon="3.75721">
        <ele>86.9</ele>
        <time>2022-06-08T16:07:03.702Z</time>
      </trkpt>
      <trkpt lat="43.62174" lon="3.75705">
        <ele>86.7</ele>
        <time>2022-06-08T16:07:05.699Z</time>
      </trkpt>
      <trkpt lat="43.62157" lon="3.75677">
        <ele>86.2</ele>
        <time>2022-06-08T16:07:10.093Z</time>
      </trkpt>
      <trkpt lat="43.62138" lon="3.75668">
        <ele>84.5</ele>
        <time>2022-06-08T16:07:12.417Z</time>
      </trkpt>
      <trkpt lat="43.62115" lon="3.75631">
        <ele>90.2</ele>
        <time>2022-06-08T16:07:52.102Z</time>
      </trkpt>
      <trkpt lat="43.62107" lon="3.75625">
        <ele>91.6</ele>
        <time>2022-06-08T16:08:02.335Z</time>
      </trkpt>
      <trkpt lat="43.62104" lon="3.75626">
        <ele>91.5</ele>
        <time>2022-06-08T16:08:02.777Z</time>
      </trkpt>
      <trkpt lat="43.62095" lon="3.75621">
        <ele>92.4</ele>
        <time>2022-06-08T16:08:09.645Z</time>
      </trkpt>
      <trkpt lat="43.62085" lon="3.756">
        <ele>95.6</ele>
        <time>2022-06-08T16:08:30.099Z</time>
      </trkpt>
      <trkpt lat="43.62084" lon="3.75593">
        <ele>96.6</ele>
        <time>2022-06-08T16:08:35.906Z</time>
      </trkpt>
      <trkpt lat="43.62076" lon="3.75576">
        <ele>97.9</ele>
        <time>2022-06-08T16:08:45.914Z</time>
      </trkpt>
      <trkpt lat="43.62075" lon="3.75576">
        <ele>97.8</ele>
        <time>2022-06-08T16:08:46.030Z</time>
        <extensions>
          <visugpx:TrkExtension xmlns:visugpx="https://www.visugpx.com/editgpx/">
            <visugpx:node>19</visugpx:node>
            </visugpx:TrkExtension>
        </extensions>
      </trkpt>
      <trkpt lat="43.62066" lon="3.75563">
        <ele>97.8</ele>
        <time>2022-06-08T16:08:49.825Z</time>
      </trkpt>
      <trkpt lat="43.62064" lon="3.75551">
        <ele>98</ele>
        <time>2022-06-08T16:08:53.095Z</time>
      </trkpt>
      <trkpt lat="43.62058" lon="3.7554">
        <ele>97.4</ele>
        <time>2022-06-08T16:08:54.206Z</time>
      </trkpt>
      <trkpt lat="43.62056" lon="3.75531">
        <ele>97.1</ele>
        <time>2022-06-08T16:08:55.078Z</time>
      </trkpt>
      <trkpt lat="43.62052" lon="3.75519">
        <ele>97.4</ele>
        <time>2022-06-08T16:08:58.989Z</time>
      </trkpt>
      <trkpt lat="43.6205" lon="3.75519">
        <ele>97.4</ele>
        <time>2022-06-08T16:08:59.572Z</time>
        <extensions>
          <visugpx:TrkExtension xmlns:visugpx="https://www.visugpx.com/editgpx/">
            <visugpx:node>20</visugpx:node>
            </visugpx:TrkExtension>
        </extensions>
      </trkpt>
      <trkpt lat="43.62032" lon="3.75511">
        <ele>98.6</ele>
        <time>2022-06-08T16:09:10.140Z</time>
      </trkpt>
      <trkpt lat="43.62012" lon="3.75516">
        <ele>99.6</ele>
        <time>2022-06-08T16:09:20.443Z</time>
      </trkpt>
      <trkpt lat="43.6201" lon="3.75512">
        <ele>100.3</ele>
        <time>2022-06-08T16:09:24.399Z</time>
      </trkpt>
      <trkpt lat="43.61996" lon="3.75514">
        <ele>101.1</ele>
        <time>2022-06-08T16:09:31.907Z</time>
      </trkpt>
      <trkpt lat="43.61991" lon="3.75526">
        <ele>99</ele>
        <time>2022-06-08T16:09:33.067Z</time>
      </trkpt>
      <trkpt lat="43.61982" lon="3.75536">
        <ele>96.3</ele>
        <time>2022-06-08T16:09:34.403Z</time>
      </trkpt>
      <trkpt lat="43.61968" lon="3.75538">
        <ele>95.4</ele>
        <time>2022-06-08T16:09:35.926Z</time>
        <extensions>
          <visugpx:TrkExtension xmlns:visugpx="https://www.visugpx.com/editgpx/">
            <visugpx:node>21</visugpx:node>
            </visugpx:TrkExtension>
        </extensions>
      </trkpt>
      <trkpt lat="43.61967" lon="3.75545">
        <ele>93.7</ele>
        <time>2022-06-08T16:09:36.523Z</time>
      </trkpt>
      <trkpt lat="43.6197" lon="3.75549">
        <ele>92.7</ele>
        <time>2022-06-08T16:09:37.006Z</time>
      </trkpt>
      <trkpt lat="43.6197" lon="3.75555">
        <ele>91.2</ele>
        <time>2022-06-08T16:09:37.508Z</time>
      </trkpt>
      <trkpt lat="43.61966" lon="3.75557">
        <ele>91.1</ele>
        <time>2022-06-08T16:09:38.178Z</time>
      </trkpt>
      <trkpt lat="43.61961" lon="3.75558">
        <ele>91.2</ele>
        <time>2022-06-08T16:09:39.977Z</time>
      </trkpt>
      <trkpt lat="43.61928" lon="3.75584">
        <ele>90.2</ele>
        <time>2022-06-08T16:09:45.776Z</time>
      </trkpt>
      <trkpt lat="43.61912" lon="3.75605">
        <ele>89.6</ele>
        <time>2022-06-08T16:09:49.114Z</time>
      </trkpt>
      <trkpt lat="43.61905" lon="3.75611">
        <ele>89.4</ele>
        <time>2022-06-08T16:09:50.400Z</time>
      </trkpt>
      <trkpt lat="43.61873" lon="3.75607">
        <ele>90.1</ele>
        <time>2022-06-08T16:10:02.098Z</time>
      </trkpt>
      <trkpt lat="43.61854" lon="3.756">
        <ele>90.7</ele>
        <time>2022-06-08T16:10:10.052Z</time>
      </trkpt>
      <trkpt lat="43.61846" lon="3.75595">
        <ele>91</ele>
        <time>2022-06-08T16:10:13.777Z</time>
      </trkpt>
      <trkpt lat="43.61834" lon="3.75579">
        <ele>91.2</ele>
        <time>2022-06-08T16:10:19.237Z</time>
      </trkpt>
      <trkpt lat="43.61826" lon="3.7556">
        <ele>91.7</ele>
        <time>2022-06-08T16:10:25.748Z</time>
      </trkpt>
      <trkpt lat="43.61814" lon="3.75538">
        <ele>91.5</ele>
        <time>2022-06-08T16:10:29.451Z</time>
      </trkpt>
      <trkpt lat="43.61718" lon="3.75396">
        <ele>93.7</ele>
        <time>2022-06-08T16:11:17.298Z</time>
      </trkpt>
      <trkpt lat="43.61705" lon="3.7538">
        <ele>93.6</ele>
        <time>2022-06-08T16:11:21.961Z</time>
      </trkpt>
      <trkpt lat="43.617" lon="3.75366">
        <ele>93.5</ele>
        <time>2022-06-08T16:11:24.093Z</time>
      </trkpt>
      <trkpt lat="43.61696" lon="3.75336">
        <ele>94.1</ele>
        <time>2022-06-08T16:11:32.662Z</time>
      </trkpt>
      <trkpt lat="43.61689" lon="3.75322">
        <ele>94.4</ele>
        <time>2022-06-08T16:11:37.282Z</time>
      </trkpt>
      <trkpt lat="43.61666" lon="3.75287">
        <ele>94.5</ele>
        <time>2022-06-08T16:11:47.530Z</time>
      </trkpt>
      <trkpt lat="43.61662" lon="3.75273">
        <ele>95.6</ele>
        <time>2022-06-08T16:11:55.865Z</time>
      </trkpt>
      <trkpt lat="43.61661" lon="3.75264">
        <ele>95.5</ele>
        <time>2022-06-08T16:11:57.011Z</time>
      </trkpt>
      <trkpt lat="43.61664" lon="3.75246">
        <ele>94.6</ele>
        <time>2022-06-08T16:11:58.557Z</time>
        <extensions>
          <visugpx:TrkExtension xmlns:visugpx="https://www.visugpx.com/editgpx/">
            <visugpx:node>22</visugpx:node>
            </visugpx:TrkExtension>
        </extensions>
      </trkpt>
      <trkpt lat="43.61664" lon="3.75242">
        <ele>94.5</ele>
        <time>2022-06-08T16:11:58.963Z</time>
      </trkpt>
      <trkpt lat="43.61665" lon="3.75233">
        <ele>94.3</ele>
        <time>2022-06-08T16:11:59.927Z</time>
      </trkpt>
      <trkpt lat="43.61667" lon="3.75224">
        <ele>94</ele>
        <time>2022-06-08T16:12:00.799Z</time>
      </trkpt>
      <trkpt lat="43.61683" lon="3.75198">
        <ele>94.8</ele>
        <time>2022-06-08T16:12:11.035Z</time>
      </trkpt>
      <trkpt lat="43.61699" lon="3.7518">
        <ele>95</ele>
        <time>2022-06-08T16:12:17.635Z</time>
      </trkpt>
      <trkpt lat="43.61704" lon="3.75165">
        <ele>95.7</ele>
        <time>2022-06-08T16:12:24.088Z</time>
      </trkpt>
      <trkpt lat="43.61706" lon="3.75145">
        <ele>96.7</ele>
        <time>2022-06-08T16:12:32.559Z</time>
      </trkpt>
      <trkpt lat="43.61709" lon="3.75129">
        <ele>97.7</ele>
        <time>2022-06-08T16:12:40.376Z</time>
      </trkpt>
      <trkpt lat="43.61719" lon="3.75128">
        <ele>97.8</ele>
        <time>2022-06-08T16:12:43.591Z</time>
        <extensions>
          <visugpx:TrkExtension xmlns:visugpx="https://www.visugpx.com/editgpx/">
            <visugpx:node>23</visugpx:node>
            </visugpx:TrkExtension>
        </extensions>
      </trkpt>
      <trkpt lat="43.61709" lon="3.75129">
        <ele>97.7</ele>
        <time>2022-06-08T16:12:45.454Z</time>
      </trkpt>
      <trkpt lat="43.61703" lon="3.75129">
        <ele>97.7</ele>
        <time>2022-06-08T16:12:47.203Z</time>
      </trkpt>
      <trkpt lat="43.61692" lon="3.75131">
        <ele>98</ele>
        <time>2022-06-08T16:12:51.501Z</time>
      </trkpt>
      <trkpt lat="43.61676" lon="3.75142">
        <ele>99.3</ele>
        <time>2022-06-08T16:13:02.203Z</time>
      </trkpt>
      <trkpt lat="43.61649" lon="3.75167">
        <ele>100.8</ele>
        <time>2022-06-08T16:13:18.359Z</time>
      </trkpt>
      <trkpt lat="43.6164" lon="3.75173">
        <ele>102.1</ele>
        <time>2022-06-08T16:13:29.074Z</time>
      </trkpt>
      <trkpt lat="43.61636" lon="3.75168">
        <ele>103.9</ele>
        <time>2022-06-08T16:13:35.138Z</time>
        <extensions>
          <visugpx:TrkExtension xmlns:visugpx="https://www.visugpx.com/editgpx/">
            <visugpx:node>24</visugpx:node>
            </visugpx:TrkExtension>
        </extensions>
      </trkpt>
      <trkpt lat="43.61641" lon="3.7515">
        <ele>105.5</ele>
        <time>2022-06-08T16:13:47.475Z</time>
      </trkpt>
      <trkpt lat="43.61648" lon="3.75137">
        <ele>106</ele>
        <time>2022-06-08T16:13:53.083Z</time>
      </trkpt>
      <trkpt lat="43.61651" lon="3.75112">
        <ele>108.8</ele>
        <time>2022-06-08T16:14:13.705Z</time>
      </trkpt>
      <trkpt lat="43.61644" lon="3.75089">
        <ele>110.6</ele>
        <time>2022-06-08T16:14:27.348Z</time>
      </trkpt>
      <trkpt lat="43.61622" lon="3.75062">
        <ele>112.7</ele>
        <time>2022-06-08T16:14:44.785Z</time>
      </trkpt>
      <trkpt lat="43.61609" lon="3.75053">
        <ele>114.1</ele>
        <time>2022-06-08T16:14:55.420Z</time>
      </trkpt>
      <trkpt lat="43.61591" lon="3.75047">
        <ele>116.5</ele>
        <time>2022-06-08T16:15:15.144Z</time>
      </trkpt>
      <trkpt lat="43.61557" lon="3.75051">
        <ele>121</ele>
        <time>2022-06-08T16:15:52.657Z</time>
      </trkpt>
      <trkpt lat="43.61551" lon="3.7505">
        <ele>121.8</ele>
        <time>2022-06-08T16:15:59.347Z</time>
        <extensions>
          <visugpx:TrkExtension xmlns:visugpx="https://www.visugpx.com/editgpx/">
            <visugpx:node>25</visugpx:node>
            </visugpx:TrkExtension>
        </extensions>
      </trkpt>
      <trkpt lat="43.61543" lon="3.75048">
        <ele>123</ele>
        <time>2022-06-08T16:16:08.486Z</time>
      </trkpt>
      <trkpt lat="43.61554" lon="3.75017">
        <ele>123.5</ele>
        <time>2022-06-08T16:16:17.404Z</time>
      </trkpt>
      <trkpt lat="43.61571" lon="3.74961">
        <ele>127.6</ele>
        <time>2022-06-08T16:16:48.669Z</time>
      </trkpt>
      <trkpt lat="43.6157" lon="3.74955">
        <ele>128.7</ele>
        <time>2022-06-08T16:16:53.680Z</time>
      </trkpt>
      <trkpt lat="43.61567" lon="3.74951">
        <ele>129.7</ele>
        <time>2022-06-08T16:16:58.367Z</time>
      </trkpt>
      <trkpt lat="43.61562" lon="3.74952">
        <ele>130.2</ele>
        <time>2022-06-08T16:17:02.157Z</time>
        <extensions>
          <visugpx:TrkExtension xmlns:visugpx="https://www.visugpx.com/editgpx/">
            <visugpx:node>26</visugpx:node>
            </visugpx:TrkExtension>
        </extensions>
      </trkpt>
      <trkpt lat="43.61559" lon="3.74953">
        <ele>130.4</ele>
        <time>2022-06-08T16:17:03.899Z</time>
      </trkpt>
      <trkpt lat="43.61497" lon="3.75022">
        <ele>136.4</ele>
        <time>2022-06-08T16:17:52.556Z</time>
      </trkpt>
      <trkpt lat="43.61484" lon="3.75032">
        <ele>138.1</ele>
        <time>2022-06-08T16:18:05.651Z</time>
      </trkpt>
      <trkpt lat="43.6147" lon="3.75047">
        <ele>139.9</ele>
        <time>2022-06-08T16:18:19.291Z</time>
      </trkpt>
      <trkpt lat="43.61455" lon="3.75061">
        <ele>140.9</ele>
        <time>2022-06-08T16:18:28.844Z</time>
      </trkpt>
      <trkpt lat="43.61449" lon="3.75071">
        <ele>141.6</ele>
        <time>2022-06-08T16:18:34.549Z</time>
      </trkpt>
      <trkpt lat="43.61449" lon="3.75068">
        <ele>141.6</ele>
        <time>2022-06-08T16:18:35.182Z</time>
        <extensions>
          <visugpx:TrkExtension xmlns:visugpx="https://www.visugpx.com/editgpx/">
            <visugpx:node>27</visugpx:node>
            </visugpx:TrkExtension>
        </extensions>
      </trkpt>
      <trkpt lat="43.61445" lon="3.75051">
        <ele>142.3</ele>
        <time>2022-06-08T16:18:41.958Z</time>
      </trkpt>
      <trkpt lat="43.61443" lon="3.75019">
        <ele>144.8</ele>
        <time>2022-06-08T16:19:00.973Z</time>
      </trkpt>
      <trkpt lat="43.61447" lon="3.74955">
        <ele>150.1</ele>
        <time>2022-06-08T16:19:41.768Z</time>
      </trkpt>
      <trkpt lat="43.61455" lon="3.74918">
        <ele>152.5</ele>
        <time>2022-06-08T16:20:00.388Z</time>
      </trkpt>
      <trkpt lat="43.61453" lon="3.74894">
        <ele>154.3</ele>
        <time>2022-06-08T16:20:14.030Z</time>
        <extensions>
          <visugpx:TrkExtension xmlns:visugpx="https://www.visugpx.com/editgpx/">
            <visugpx:node>28</visugpx:node>
            </visugpx:TrkExtension>
        </extensions>
      </trkpt>
      <trkpt lat="43.61449" lon="3.74859">
        <ele>154.4</ele>
        <time>2022-06-08T16:20:21.783Z</time>
      </trkpt>
      <trkpt lat="43.6145" lon="3.7485">
        <ele>153.4</ele>
        <time>2022-06-08T16:20:22.546Z</time>
      </trkpt>
      <trkpt lat="43.61456" lon="3.7483">
        <ele>150.6</ele>
        <time>2022-06-08T16:20:24.359Z</time>
      </trkpt>
      <trkpt lat="43.61456" lon="3.74824">
        <ele>149.5</ele>
        <time>2022-06-08T16:20:24.862Z</time>
      </trkpt>
      <trkpt lat="43.61444" lon="3.74784">
        <ele>145.7</ele>
        <time>2022-06-08T16:20:28.488Z</time>
      </trkpt>
      <trkpt lat="43.61443" lon="3.74773">
        <ele>144.4</ele>
        <time>2022-06-08T16:20:29.416Z</time>
      </trkpt>
      <trkpt lat="43.61446" lon="3.74743">
        <ele>141.5</ele>
        <time>2022-06-08T16:20:31.953Z</time>
      </trkpt>
      <trkpt lat="43.61452" lon="3.74735">
        <ele>140.5</ele>
        <time>2022-06-08T16:20:32.918Z</time>
      </trkpt>
      <trkpt lat="43.61502" lon="3.74727">
        <ele>130.8</ele>
        <time>2022-06-08T16:20:38.740Z</time>
      </trkpt>
      <trkpt lat="43.61536" lon="3.74709">
        <ele>124.7</ele>
        <time>2022-06-08T16:20:42.952Z</time>
      </trkpt>
      <trkpt lat="43.61564" lon="3.74692">
        <ele>118.7</ele>
        <time>2022-06-08T16:20:46.490Z</time>
      </trkpt>
      <trkpt lat="43.6158" lon="3.74678">
        <ele>115.8</ele>
        <time>2022-06-08T16:20:48.681Z</time>
      </trkpt>
      <trkpt lat="43.616" lon="3.74666">
        <ele>111.4</ele>
        <time>2022-06-08T16:20:51.204Z</time>
      </trkpt>
      <trkpt lat="43.61619" lon="3.74648">
        <ele>107.8</ele>
        <time>2022-06-08T16:20:53.869Z</time>
      </trkpt>
      <trkpt lat="43.61628" lon="3.7464">
        <ele>106</ele>
        <time>2022-06-08T16:20:55.107Z</time>
      </trkpt>
      <trkpt lat="43.61627" lon="3.74639">
        <ele>106.1</ele>
        <time>2022-06-08T16:20:55.897Z</time>
        <extensions>
          <visugpx:TrkExtension xmlns:visugpx="https://www.visugpx.com/editgpx/">
            <visugpx:node>29</visugpx:node>
            </visugpx:TrkExtension>
        </extensions>
      </trkpt>
      <trkpt lat="43.61623" lon="3.7463">
        <ele>106.5</ele>
        <time>2022-06-08T16:20:59.853Z</time>
      </trkpt>
      <trkpt lat="43.61598" lon="3.74578">
        <ele>108</ele>
        <time>2022-06-08T16:21:18.776Z</time>
      </trkpt>
      <trkpt lat="43.61581" lon="3.74538">
        <ele>107.8</ele>
        <time>2022-06-08T16:21:27.744Z</time>
      </trkpt>
      <trkpt lat="43.61578" lon="3.74513">
        <ele>106.8</ele>
        <time>2022-06-08T16:21:29.886Z</time>
      </trkpt>
      <trkpt lat="43.61571" lon="3.7451">
        <ele>108.2</ele>
        <time>2022-06-08T16:21:38.124Z</time>
      </trkpt>
      <trkpt lat="43.6157" lon="3.74509">
        <ele>108.3</ele>
        <time>2022-06-08T16:21:38.914Z</time>
        <extensions>
          <visugpx:TrkExtension xmlns:visugpx="https://www.visugpx.com/editgpx/">
            <visugpx:node>30</visugpx:node>
            </visugpx:TrkExtension>
        </extensions>
      </trkpt>
      <trkpt lat="43.61571" lon="3.7451">
        <ele>108.2</ele>
        <time>2022-06-08T16:21:39.057Z</time>
      </trkpt>
      <trkpt lat="43.61578" lon="3.74513">
        <ele>106.8</ele>
        <time>2022-06-08T16:21:39.904Z</time>
      </trkpt>
      <trkpt lat="43.61586" lon="3.74517">
        <ele>105.5</ele>
        <time>2022-06-08T16:21:40.889Z</time>
      </trkpt>
      <trkpt lat="43.61614" lon="3.74537">
        <ele>104.4</ele>
        <time>2022-06-08T16:21:45.289Z</time>
      </trkpt>
      <trkpt lat="43.61625" lon="3.74542">
        <ele>104.5</ele>
        <time>2022-06-08T16:21:48.953Z</time>
      </trkpt>
      <trkpt lat="43.61626" lon="3.74543">
        <ele>104.5</ele>
        <time>2022-06-08T16:21:49.313Z</time>
      </trkpt>
      <trkpt lat="43.61641" lon="3.74546">
        <ele>104.9</ele>
        <time>2022-06-08T16:21:55.138Z</time>
      </trkpt>
      <trkpt lat="43.61648" lon="3.74546">
        <ele>106.7</ele>
        <time>2022-06-08T16:22:03.007Z</time>
        <extensions>
          <visugpx:TrkExtension xmlns:visugpx="https://www.visugpx.com/editgpx/">
            <visugpx:node>31</visugpx:node>
            </visugpx:TrkExtension>
        </extensions>
      </trkpt>
      <trkpt lat="43.61663" lon="3.74558">
        <ele>108.8</ele>
        <time>2022-06-08T16:22:19.554Z</time>
      </trkpt>
      <trkpt lat="43.61675" lon="3.74576">
        <ele>108.8</ele>
        <time>2022-06-08T16:22:24.716Z</time>
      </trkpt>
      <trkpt lat="43.61689" lon="3.74603">
        <ele>108.3</ele>
        <time>2022-06-08T16:22:28.622Z</time>
      </trkpt>
      <trkpt lat="43.61708" lon="3.7461">
        <ele>111.1</ele>
        <time>2022-06-08T16:22:50.727Z</time>
      </trkpt>
      <trkpt lat="43.61721" lon="3.7462">
        <ele>112.2</ele>
        <time>2022-06-08T16:22:59.719Z</time>
      </trkpt>
      <trkpt lat="43.61735" lon="3.74637">
        <ele>111.2</ele>
        <time>2022-06-08T16:23:01.911Z</time>
      </trkpt>
      <trkpt lat="43.61758" lon="3.74643">
        <ele>112.3</ele>
        <time>2022-06-08T16:23:13.608Z</time>
      </trkpt>
      <trkpt lat="43.61761" lon="3.74642">
        <ele>112.4</ele>
        <time>2022-06-08T16:23:14.887Z</time>
        <extensions>
          <visugpx:TrkExtension xmlns:visugpx="https://www.visugpx.com/editgpx/">
            <visugpx:node>32</visugpx:node>
            </visugpx:TrkExtension>
        </extensions>
      </trkpt>
      <trkpt lat="43.61793" lon="3.74631">
        <ele>113.7</ele>
        <time>2022-06-08T16:23:29.929Z</time>
        <extensions>
          <visugpx:TrkExtension xmlns:visugpx="https://www.visugpx.com/editgpx/">
            <visugpx:node>33</visugpx:node>
            </visugpx:TrkExtension>
        </extensions>
      </trkpt>
      <trkpt lat="43.618" lon="3.74628">
        <ele>113.8</ele>
        <time>2022-06-08T16:23:32.370Z</time>
      </trkpt>
      <trkpt lat="43.61817" lon="3.74621">
        <ele>114.3</ele>
        <time>2022-06-08T16:23:39.339Z</time>
      </trkpt>
      <trkpt lat="43.61815" lon="3.74605">
        <ele>116.2</ele>
        <time>2022-06-08T16:23:52.552Z</time>
      </trkpt>
      <trkpt lat="43.61803" lon="3.74588">
        <ele>118.8</ele>
        <time>2022-06-08T16:24:11.874Z</time>
      </trkpt>
      <trkpt lat="43.61785" lon="3.74548">
        <ele>126.7</ele>
        <time>2022-06-08T16:24:50.201Z</time>
      </trkpt>
      <trkpt lat="43.61776" lon="3.74536">
        <ele>130</ele>
        <time>2022-06-08T16:25:04.262Z</time>
      </trkpt>
      <trkpt lat="43.61771" lon="3.74533">
        <ele>130.9</ele>
        <time>2022-06-08T16:25:10.390Z</time>
        <extensions>
          <visugpx:TrkExtension xmlns:visugpx="https://www.visugpx.com/editgpx/">
            <visugpx:node>34</visugpx:node>
            </visugpx:TrkExtension>
        </extensions>
      </trkpt>
      <trkpt lat="43.61767" lon="3.74531">
        <ele>131.7</ele>
        <time>2022-06-08T16:25:15.172Z</time>
      </trkpt>
      <trkpt lat="43.6175" lon="3.74529">
        <ele>133.8</ele>
        <time>2022-06-08T16:25:31.855Z</time>
      </trkpt>
      <trkpt lat="43.61742" lon="3.74524">
        <ele>134</ele>
        <time>2022-06-08T16:25:35.088Z</time>
      </trkpt>
      <trkpt lat="43.6174" lon="3.7452">
        <ele>134.4</ele>
        <time>2022-06-08T16:25:38.165Z</time>
      </trkpt>
      <trkpt lat="43.61738" lon="3.74493">
        <ele>137.8</ele>
        <time>2022-06-08T16:26:00.252Z</time>
      </trkpt>
      <trkpt lat="43.6174" lon="3.74416">
        <ele>142.3</ele>
        <time>2022-06-08T16:26:35.826Z</time>
      </trkpt>
      <trkpt lat="43.61753" lon="3.74315">
        <ele>148.6</ele>
        <time>2022-06-08T16:27:24.861Z</time>
      </trkpt>
      <trkpt lat="43.61771" lon="3.74305">
        <ele>149</ele>
        <time>2022-06-08T16:27:31.832Z</time>
      </trkpt>
      <trkpt lat="43.61773" lon="3.74302">
        <ele>149.1</ele>
        <time>2022-06-08T16:27:33.079Z</time>
        <extensions>
          <visugpx:TrkExtension xmlns:visugpx="https://www.visugpx.com/editgpx/">
            <visugpx:node>35</visugpx:node>
            </visugpx:TrkExtension>
        </extensions>
      </trkpt>
      <trkpt lat="43.61776" lon="3.74297">
        <ele>149.3</ele>
        <time>2022-06-08T16:27:35.324Z</time>
      </trkpt>
      <trkpt lat="43.61786" lon="3.74277">
        <ele>150.9</ele>
        <time>2022-06-08T16:27:47.577Z</time>
      </trkpt>
      <trkpt lat="43.618" lon="3.74257">
        <ele>151.7</ele>
        <time>2022-06-08T16:27:56.803Z</time>
      </trkpt>
      <trkpt lat="43.61812" lon="3.74226">
        <ele>151.6</ele>
        <time>2022-06-08T16:28:03.799Z</time>
      </trkpt>
      <trkpt lat="43.61824" lon="3.74202">
        <ele>151.1</ele>
        <time>2022-06-08T16:28:07.118Z</time>
      </trkpt>
      <trkpt lat="43.61832" lon="3.7418">
        <ele>150.7</ele>
        <time>2022-06-08T16:28:09.959Z</time>
      </trkpt>
      <trkpt lat="43.61844" lon="3.74162">
        <ele>150.1</ele>
        <time>2022-06-08T16:28:12.457Z</time>
        <extensions>
          <visugpx:TrkExtension xmlns:visugpx="https://www.visugpx.com/editgpx/">
            <visugpx:node>36</visugpx:node>
            </visugpx:TrkExtension>
        </extensions>
      </trkpt>
      <trkpt lat="43.61848" lon="3.74157">
        <ele>150</ele>
        <time>2022-06-08T16:28:13.357Z</time>
      </trkpt>
      <trkpt lat="43.61865" lon="3.74146">
        <ele>150</ele>
        <time>2022-06-08T16:28:18.828Z</time>
      </trkpt>
      <trkpt lat="43.61881" lon="3.74138">
        <ele>149.3</ele>
        <time>2022-06-08T16:28:21.064Z</time>
      </trkpt>
      <trkpt lat="43.6188" lon="3.74114">
        <ele>149</ele>
        <time>2022-06-08T16:28:24.013Z</time>
      </trkpt>
      <trkpt lat="43.61876" lon="3.74093">
        <ele>150</ele>
        <time>2022-06-08T16:28:32.809Z</time>
      </trkpt>
      <trkpt lat="43.61873" lon="3.74093">
        <ele>150</ele>
        <time>2022-06-08T16:28:33.683Z</time>
        <extensions>
          <visugpx:TrkExtension xmlns:visugpx="https://www.visugpx.com/editgpx/">
            <visugpx:node>37</visugpx:node>
            </visugpx:TrkExtension>
        </extensions>
      </trkpt>
      <trkpt lat="43.61868" lon="3.74092">
        <ele>150.2</ele>
        <time>2022-06-08T16:28:35.993Z</time>
      </trkpt>
      <trkpt lat="43.61842" lon="3.74079">
        <ele>149.2</ele>
        <time>2022-06-08T16:28:39.804Z</time>
      </trkpt>
      <trkpt lat="43.61834" lon="3.74062">
        <ele>149.6</ele>
        <time>2022-06-08T16:28:45.505Z</time>
      </trkpt>
      <trkpt lat="43.61827" lon="3.74048">
        <ele>150</ele>
        <time>2022-06-08T16:28:50.615Z</time>
      </trkpt>
      <trkpt lat="43.61816" lon="3.74038">
        <ele>149.4</ele>
        <time>2022-06-08T16:28:52.276Z</time>
      </trkpt>
      <trkpt lat="43.61814" lon="3.74029">
        <ele>150.6</ele>
        <time>2022-06-08T16:28:59.937Z</time>
      </trkpt>
      <trkpt lat="43.61803" lon="3.74013">
        <ele>150</ele>
        <time>2022-06-08T16:29:02.109Z</time>
      </trkpt>
      <trkpt lat="43.61786" lon="3.73993">
        <ele>149.7</ele>
        <time>2022-06-08T16:29:06.076Z</time>
      </trkpt>
      <trkpt lat="43.61771" lon="3.73982">
        <ele>148.9</ele>
        <time>2022-06-08T16:29:08.189Z</time>
      </trkpt>
      <trkpt lat="43.61761" lon="3.73973">
        <ele>148.8</ele>
        <time>2022-06-08T16:29:10.455Z</time>
      </trkpt>
      <trkpt lat="43.61757" lon="3.73965">
        <ele>148.6</ele>
        <time>2022-06-08T16:29:11.506Z</time>
      </trkpt>
      <trkpt lat="43.61752" lon="3.73945">
        <ele>148.4</ele>
        <time>2022-06-08T16:29:14.240Z</time>
      </trkpt>
      <trkpt lat="43.61752" lon="3.73926">
        <ele>147.9</ele>
        <time>2022-06-08T16:29:16.133Z</time>
      </trkpt>
      <trkpt lat="43.61756" lon="3.73886">
        <ele>147.9</ele>
        <time>2022-06-08T16:29:24.652Z</time>
      </trkpt>
      <trkpt lat="43.61751" lon="3.73835">
        <ele>147.3</ele>
        <time>2022-06-08T16:29:31.054Z</time>
      </trkpt>
      <trkpt lat="43.61747" lon="3.73817">
        <ele>147.6</ele>
        <time>2022-06-08T16:29:36.030Z</time>
      </trkpt>
      <trkpt lat="43.6174" lon="3.73802">
        <ele>147.6</ele>
        <time>2022-06-08T16:29:39.795Z</time>
      </trkpt>
      <trkpt lat="43.6173" lon="3.73791">
        <ele>147</ele>
        <time>2022-06-08T16:29:41.388Z</time>
      </trkpt>
      <trkpt lat="43.61725" lon="3.7378">
        <ele>147.3</ele>
        <time>2022-06-08T16:29:45.260Z</time>
      </trkpt>
      <trkpt lat="43.61719" lon="3.7376">
        <ele>146.1</ele>
        <time>2022-06-08T16:29:47.073Z</time>
      </trkpt>
      <trkpt lat="43.61726" lon="3.73723">
        <ele>145.1</ele>
        <time>2022-06-08T16:29:50.891Z</time>
      </trkpt>
      <trkpt lat="43.61733" lon="3.73713">
        <ele>146.4</ele>
        <time>2022-06-08T16:30:01.542Z</time>
      </trkpt>
      <trkpt lat="43.61738" lon="3.73696">
        <ele>146.8</ele>
        <time>2022-06-08T16:30:06.888Z</time>
      </trkpt>
      <trkpt lat="43.61737" lon="3.73685">
        <ele>146.1</ele>
        <time>2022-06-08T16:30:07.817Z</time>
      </trkpt>
      <trkpt lat="43.61734" lon="3.73676">
        <ele>145</ele>
        <time>2022-06-08T16:30:08.646Z</time>
        <extensions>
          <visugpx:TrkExtension xmlns:visugpx="https://www.visugpx.com/editgpx/">
            <visugpx:node>38</visugpx:node>
            </visugpx:TrkExtension>
        </extensions>
      </trkpt>
      <trkpt lat="43.61731" lon="3.73665">
        <ele>144.1</ele>
        <time>2022-06-08T16:30:09.631Z</time>
      </trkpt>
      <trkpt lat="43.61718" lon="3.73653">
        <ele>142.9</ele>
        <time>2022-06-08T16:30:11.440Z</time>
      </trkpt>
      <trkpt lat="43.61672" lon="3.73641">
        <ele>139.9</ele>
        <time>2022-06-08T16:30:16.500Z</time>
      </trkpt>
      <trkpt lat="43.61615" lon="3.73619">
        <ele>143.3</ele>
        <time>2022-06-08T16:30:48.206Z</time>
      </trkpt>
      <trkpt lat="43.61589" lon="3.73603">
        <ele>143</ele>
        <time>2022-06-08T16:30:53.455Z</time>
      </trkpt>
      <trkpt lat="43.61587" lon="3.73611">
        <ele>141.5</ele>
        <time>2022-06-08T16:30:54.164Z</time>
      </trkpt>
      <trkpt lat="43.61564" lon="3.73643">
        <ele>131.8</ele>
        <time>2022-06-08T16:30:57.941Z</time>
      </trkpt>
      <trkpt lat="43.61562" lon="3.73652">
        <ele>130.1</ele>
        <time>2022-06-08T16:30:58.729Z</time>
      </trkpt>
      <trkpt lat="43.61562" lon="3.73665">
        <ele>128</ele>
        <time>2022-06-08T16:30:59.818Z</time>
      </trkpt>
      <trkpt lat="43.61567" lon="3.73691">
        <ele>124</ele>
        <time>2022-06-08T16:31:02.071Z</time>
      </trkpt>
      <trkpt lat="43.61563" lon="3.73711">
        <ele>122.6</ele>
        <time>2022-06-08T16:31:03.808Z</time>
      </trkpt>
      <trkpt lat="43.61563" lon="3.73709">
        <ele>122.6</ele>
        <time>2022-06-08T16:31:04.230Z</time>
        <extensions>
          <visugpx:TrkExtension xmlns:visugpx="https://www.visugpx.com/editgpx/">
            <visugpx:node>39</visugpx:node>
            </visugpx:TrkExtension>
        </extensions>
      </trkpt>
      <trkpt lat="43.61563" lon="3.73711">
        <ele>122.6</ele>
        <time>2022-06-08T16:31:04.652Z</time>
      </trkpt>
      <trkpt lat="43.61546" lon="3.73777">
        <ele>120.5</ele>
        <time>2022-06-08T16:31:11.300Z</time>
      </trkpt>
      <trkpt lat="43.61529" lon="3.73829">
        <ele>115.5</ele>
        <time>2022-06-08T16:31:16.078Z</time>
      </trkpt>
      <trkpt lat="43.61522" lon="3.73838">
        <ele>115.2</ele>
        <time>2022-06-08T16:31:17.462Z</time>
      </trkpt>
      <trkpt lat="43.61526" lon="3.73846">
        <ele>115</ele>
        <time>2022-06-08T16:31:18.512Z</time>
        <extensions>
          <visugpx:TrkExtension xmlns:visugpx="https://www.visugpx.com/editgpx/">
            <visugpx:node>40</visugpx:node>
            </visugpx:TrkExtension>
        </extensions>
      </trkpt>
      <trkpt lat="43.61522" lon="3.73838">
        <ele>115.2</ele>
        <time>2022-06-08T16:31:21.285Z</time>
      </trkpt>
      <trkpt lat="43.61517" lon="3.73839">
        <ele>115.3</ele>
        <time>2022-06-08T16:31:23.084Z</time>
      </trkpt>
      <trkpt lat="43.61481" lon="3.73807">
        <ele>118</ele>
        <time>2022-06-08T16:31:46.942Z</time>
      </trkpt>
      <trkpt lat="43.61473" lon="3.7379">
        <ele>120</ele>
        <time>2022-06-08T16:32:03.443Z</time>
      </trkpt>
      <trkpt lat="43.6147" lon="3.73769">
        <ele>121.1</ele>
        <time>2022-06-08T16:32:12.599Z</time>
      </trkpt>
      <trkpt lat="43.61465" lon="3.73718">
        <ele>122.8</ele>
        <time>2022-06-08T16:32:31.057Z</time>
      </trkpt>
      <trkpt lat="43.61452" lon="3.73677">
        <ele>124.7</ele>
        <time>2022-06-08T16:32:48.560Z</time>
      </trkpt>
      <trkpt lat="43.61442" lon="3.7366">
        <ele>126.5</ele>
        <time>2022-06-08T16:33:02.400Z</time>
        <extensions>
          <visugpx:TrkExtension xmlns:visugpx="https://www.visugpx.com/editgpx/">
            <visugpx:node>41</visugpx:node>
            </visugpx:TrkExtension>
        </extensions>
      </trkpt>
      <trkpt lat="43.61441" lon="3.73659">
        <ele>126.7</ele>
        <time>2022-06-08T16:33:03.787Z</time>
      </trkpt>
      <trkpt lat="43.61399" lon="3.7368">
        <ele>133</ele>
        <time>2022-06-08T16:33:53.997Z</time>
      </trkpt>
      <trkpt lat="43.61374" lon="3.73697">
        <ele>135.8</ele>
        <time>2022-06-08T16:34:15.215Z</time>
      </trkpt>
      <trkpt lat="43.61362" lon="3.73703">
        <ele>136.6</ele>
        <time>2022-06-08T16:34:22.308Z</time>
      </trkpt>
      <trkpt lat="43.61323" lon="3.73704">
        <ele>140.1</ele>
        <time>2022-06-08T16:34:49.180Z</time>
      </trkpt>
      <trkpt lat="43.61283" lon="3.73722">
        <ele>142.1</ele>
        <time>2022-06-08T16:35:10.278Z</time>
      </trkpt>
      <trkpt lat="43.61269" lon="3.7372">
        <ele>143.6</ele>
        <time>2022-06-08T16:35:21.674Z</time>
      </trkpt>
      <trkpt lat="43.61225" lon="3.73699">
        <ele>149.1</ele>
        <time>2022-06-08T16:36:04.533Z</time>
      </trkpt>
      <trkpt lat="43.61183" lon="3.73688">
        <ele>153.1</ele>
        <time>2022-06-08T16:36:35.020Z</time>
      </trkpt>
      <trkpt lat="43.61181" lon="3.73686">
        <ele>153.3</ele>
        <time>2022-06-08T16:36:36.599Z</time>
        <extensions>
          <visugpx:TrkExtension xmlns:visugpx="https://www.visugpx.com/editgpx/">
            <visugpx:node>42</visugpx:node>
            </visugpx:TrkExtension>
        </extensions>
      </trkpt>
      <trkpt lat="43.61175" lon="3.7368">
        <ele>153.9</ele>
        <time>2022-06-08T16:36:41.336Z</time>
      </trkpt>
      <trkpt lat="43.61163" lon="3.73651">
        <ele>154.7</ele>
        <time>2022-06-08T16:36:51.448Z</time>
      </trkpt>
      <trkpt lat="43.6113" lon="3.73626">
        <ele>155.7</ele>
        <time>2022-06-08T16:37:05.945Z</time>
      </trkpt>
      <trkpt lat="43.61113" lon="3.73609">
        <ele>155.9</ele>
        <time>2022-06-08T16:37:12.646Z</time>
      </trkpt>
      <trkpt lat="43.61114" lon="3.73606">
        <ele>155.7</ele>
        <time>2022-06-08T16:37:12.923Z</time>
        <extensions>
          <visugpx:TrkExtension xmlns:visugpx="https://www.visugpx.com/editgpx/">
            <visugpx:node>43</visugpx:node>
            </visugpx:TrkExtension>
        </extensions>
      </trkpt>
      <trkpt lat="43.61115" lon="3.736">
        <ele>155.5</ele>
        <time>2022-06-08T16:37:13.489Z</time>
      </trkpt>
      <trkpt lat="43.61149" lon="3.7354">
        <ele>152.9</ele>
        <time>2022-06-08T16:37:20.351Z</time>
      </trkpt>
      <trkpt lat="43.6115" lon="3.73525">
        <ele>152.2</ele>
        <time>2022-06-08T16:37:21.529Z</time>
      </trkpt>
      <trkpt lat="43.61141" lon="3.73496">
        <ele>152.9</ele>
        <time>2022-06-08T16:37:30.784Z</time>
      </trkpt>
      <trkpt lat="43.61143" lon="3.73482">
        <ele>153</ele>
        <time>2022-06-08T16:37:34.088Z</time>
      </trkpt>
      <trkpt lat="43.61137" lon="3.73475">
        <ele>154.2</ele>
        <time>2022-06-08T16:37:42.917Z</time>
      </trkpt>
      <trkpt lat="43.61135" lon="3.73456">
        <ele>156.1</ele>
        <time>2022-06-08T16:37:58.543Z</time>
      </trkpt>
      <trkpt lat="43.61137" lon="3.73453">
        <ele>155.8</ele>
        <time>2022-06-08T16:37:58.885Z</time>
        <extensions>
          <visugpx:TrkExtension xmlns:visugpx="https://www.visugpx.com/editgpx/">
            <visugpx:node>44</visugpx:node>
            </visugpx:TrkExtension>
        </extensions>
      </trkpt>
      <trkpt lat="43.61143" lon="3.73436">
        <ele>156.1</ele>
        <time>2022-06-08T16:38:03.877Z</time>
        <extensions>
          <visugpx:TrkExtension xmlns:visugpx="https://www.visugpx.com/editgpx/">
            <visugpx:node>45</visugpx:node>
            </visugpx:TrkExtension>
        </extensions>
      </trkpt>
      <trkpt lat="43.61129" lon="3.73422">
        <ele>161.5</ele>
        <time>2022-06-08T16:38:23.306Z</time>
      </trkpt>
      <trkpt lat="43.61108" lon="3.73427">
        <ele>165.7</ele>
        <time>2022-06-08T16:38:47.260Z</time>
      </trkpt>
      <trkpt lat="43.61097" lon="3.73442">
        <ele>165.8</ele>
        <time>2022-06-08T16:38:52.049Z</time>
      </trkpt>
      <trkpt lat="43.61091" lon="3.73438">
        <ele>167</ele>
        <time>2022-06-08T16:38:59.538Z</time>
        <extensions>
          <visugpx:TrkExtension xmlns:visugpx="https://www.visugpx.com/editgpx/">
            <visugpx:node>46</visugpx:node>
            </visugpx:TrkExtension>
        </extensions>
      </trkpt>
      <trkpt lat="43.6108" lon="3.73428">
        <ele>169.6</ele>
        <time>2022-06-08T16:39:14.341Z</time>
      </trkpt>
      <trkpt lat="43.61067" lon="3.73408">
        <ele>172.7</ele>
        <time>2022-06-08T16:39:36.216Z</time>
      </trkpt>
      <trkpt lat="43.61068" lon="3.73396">
        <ele>174.2</ele>
        <time>2022-06-08T16:39:46.047Z</time>
      </trkpt>
      <trkpt lat="43.61063" lon="3.73381">
        <ele>176.4</ele>
        <time>2022-06-08T16:39:59.487Z</time>
      </trkpt>
      <trkpt lat="43.61044" lon="3.73377">
        <ele>178.1</ele>
        <time>2022-06-08T16:40:12.579Z</time>
      </trkpt>
      <trkpt lat="43.61026" lon="3.73366">
        <ele>180.2</ele>
        <time>2022-06-08T16:40:28.536Z</time>
      </trkpt>
      <trkpt lat="43.61017" lon="3.73347">
        <ele>181.7</ele>
        <time>2022-06-08T16:40:40.016Z</time>
        <extensions>
          <visugpx:TrkExtension xmlns:visugpx="https://www.visugpx.com/editgpx/">
            <visugpx:node>47</visugpx:node>
            </visugpx:TrkExtension>
        </extensions>
      </trkpt>
      <trkpt lat="43.61014" lon="3.7334">
        <ele>182.3</ele>
        <time>2022-06-08T16:40:44.562Z</time>
      </trkpt>
      <trkpt lat="43.61007" lon="3.73309">
        <ele>184</ele>
        <time>2022-06-08T16:40:58.594Z</time>
      </trkpt>
      <trkpt lat="43.61007" lon="3.73308">
        <ele>184.1</ele>
        <time>2022-06-08T16:40:59.408Z</time>
        <extensions>
          <visugpx:TrkExtension xmlns:visugpx="https://www.visugpx.com/editgpx/">
            <visugpx:node>48</visugpx:node>
            </visugpx:TrkExtension>
        </extensions>
      </trkpt>
      <trkpt lat="43.61003" lon="3.73295">
        <ele>184.1</ele>
        <time>2022-06-08T16:41:02.388Z</time>
      </trkpt>
      <trkpt lat="43.61001" lon="3.73277">
        <ele>184.1</ele>
        <time>2022-06-08T16:41:06.231Z</time>
      </trkpt>
      <trkpt lat="43.61005" lon="3.73259">
        <ele>184.9</ele>
        <time>2022-06-08T16:41:13.597Z</time>
      </trkpt>
      <trkpt lat="43.61001" lon="3.73225">
        <ele>185</ele>
        <time>2022-06-08T16:41:21.143Z</time>
      </trkpt>
      <trkpt lat="43.60999" lon="3.73194">
        <ele>184.7</ele>
        <time>2022-06-08T16:41:25.152Z</time>
      </trkpt>
      <trkpt lat="43.60993" lon="3.73173">
        <ele>183.4</ele>
        <time>2022-06-08T16:41:27.043Z</time>
        <extensions>
          <visugpx:TrkExtension xmlns:visugpx="https://www.visugpx.com/editgpx/">
            <visugpx:node>49</visugpx:node>
            </visugpx:TrkExtension>
        </extensions>
      </trkpt>
      <trkpt lat="43.60989" lon="3.73161">
        <ele>183.2</ele>
        <time>2022-06-08T16:41:28.595Z</time>
      </trkpt>
      <trkpt lat="43.60946" lon="3.73078">
        <ele>186.8</ele>
        <time>2022-06-08T16:42:05.937Z</time>
        <extensions>
          <visugpx:TrkExtension xmlns:visugpx="https://www.visugpx.com/editgpx/">
            <visugpx:node>50</visugpx:node>
            </visugpx:TrkExtension>
        </extensions>
      </trkpt>
      <trkpt lat="43.60944" lon="3.73075">
        <ele>186.8</ele>
        <time>2022-06-08T16:42:06.797Z</time>
      </trkpt>
      <trkpt lat="43.60937" lon="3.73055">
        <ele>186.6</ele>
        <time>2022-06-08T16:42:09.692Z</time>
      </trkpt>
      <trkpt lat="43.60933" lon="3.73028">
        <ele>185.7</ele>
        <time>2022-06-08T16:42:12.219Z</time>
      </trkpt>
      <trkpt lat="43.60944" lon="3.72982">
        <ele>187.6</ele>
        <time>2022-06-08T16:42:30.595Z</time>
      </trkpt>
      <trkpt lat="43.60955" lon="3.72972">
        <ele>188.1</ele>
        <time>2022-06-08T16:42:36.480Z</time>
        <extensions>
          <visugpx:TrkExtension xmlns:visugpx="https://www.visugpx.com/editgpx/">
            <visugpx:node>51</visugpx:node>
            </visugpx:TrkExtension>
        </extensions>
      </trkpt>
      <trkpt lat="43.60871" lon="3.72807">
        <ele>155.7</ele>
        <time>2022-06-08T16:42:53.385Z</time>
        <extensions>
          <visugpx:TrkExtension xmlns:visugpx="https://www.visugpx.com/editgpx/">
            <visugpx:node>52</visugpx:node>
            </visugpx:TrkExtension>
        </extensions>
      </trkpt>
      <trkpt lat="43.60841" lon="3.72786">
        <ele>154.9</ele>
        <time>2022-06-08T16:42:58.642Z</time>
        <extensions>
          <visugpx:TrkExtension xmlns:visugpx="https://www.visugpx.com/editgpx/">
            <visugpx:node>53</visugpx:node>
            </visugpx:TrkExtension>
        </extensions>
      </trkpt>
      <trkpt lat="43.60838" lon="3.72782">
        <ele>154.9</ele>
        <time>2022-06-08T16:42:59.883Z</time>
      </trkpt>
      <trkpt lat="43.60837" lon="3.72801">
        <ele>155.1</ele>
        <time>2022-06-08T16:43:04.518Z</time>
      </trkpt>
      <trkpt lat="43.60821" lon="3.72885">
        <ele>154</ele>
        <time>2022-06-08T16:43:15.144Z</time>
      </trkpt>
      <trkpt lat="43.60823" lon="3.72892">
        <ele>154.5</ele>
        <time>2022-06-08T16:43:18.966Z</time>
      </trkpt>
      <trkpt lat="43.60835" lon="3.73047">
        <ele>155</ele>
        <time>2022-06-08T16:43:53.251Z</time>
      </trkpt>
      <trkpt lat="43.6084" lon="3.73078">
        <ele>154.7</ele>
        <time>2022-06-08T16:43:57.357Z</time>
      </trkpt>
      <trkpt lat="43.60841" lon="3.73107">
        <ele>152.7</ele>
        <time>2022-06-08T16:43:59.789Z</time>
      </trkpt>
      <trkpt lat="43.60843" lon="3.73121">
        <ele>152.3</ele>
        <time>2022-06-08T16:44:01.178Z</time>
      </trkpt>
      <trkpt lat="43.60846" lon="3.7314">
        <ele>151.7</ele>
        <time>2022-06-08T16:44:03.003Z</time>
      </trkpt>
      <trkpt lat="43.60856" lon="3.7316">
        <ele>151.7</ele>
        <time>2022-06-08T16:44:08.132Z</time>
      </trkpt>
      <trkpt lat="43.60865" lon="3.73176">
        <ele>152.8</ele>
        <time>2022-06-08T16:44:17.070Z</time>
      </trkpt>
      <trkpt lat="43.6087" lon="3.73203">
        <ele>152.1</ele>
        <time>2022-06-08T16:44:19.893Z</time>
      </trkpt>
      <trkpt lat="43.60884" lon="3.73253">
        <ele>150.9</ele>
        <time>2022-06-08T16:44:25.535Z</time>
      </trkpt>
      <trkpt lat="43.6088" lon="3.73274">
        <ele>149.8</ele>
        <time>2022-06-08T16:44:27.354Z</time>
      </trkpt>
      <trkpt lat="43.60876" lon="3.73323">
        <ele>148.8</ele>
        <time>2022-06-08T16:44:32.706Z</time>
      </trkpt>
      <trkpt lat="43.60876" lon="3.73353">
        <ele>148.8</ele>
        <time>2022-06-08T16:44:39.036Z</time>
      </trkpt>
      <trkpt lat="43.60879" lon="3.7338">
        <ele>148.6</ele>
        <time>2022-06-08T16:44:42.705Z</time>
      </trkpt>
      <trkpt lat="43.60883" lon="3.73395">
        <ele>148.7</ele>
        <time>2022-06-08T16:44:46.368Z</time>
      </trkpt>
      <trkpt lat="43.60885" lon="3.73423">
        <ele>148.1</ele>
        <time>2022-06-08T16:44:49.375Z</time>
      </trkpt>
      <trkpt lat="43.60883" lon="3.73463">
        <ele>146.8</ele>
        <time>2022-06-08T16:44:53.064Z</time>
      </trkpt>
      <trkpt lat="43.60883" lon="3.7348">
        <ele>147</ele>
        <time>2022-06-08T16:44:57.278Z</time>
      </trkpt>
      <trkpt lat="43.60889" lon="3.7349">
        <ele>147.6</ele>
        <time>2022-06-08T16:45:02.547Z</time>
        <extensions>
          <visugpx:TrkExtension xmlns:visugpx="https://www.visugpx.com/editgpx/">
            <visugpx:node>54</visugpx:node>
            </visugpx:TrkExtension>
        </extensions>
      </trkpt>
      <trkpt lat="43.60897" lon="3.73503">
        <ele>148.6</ele>
        <time>2022-06-08T16:45:10.443Z</time>
      </trkpt>
      <trkpt lat="43.60901" lon="3.73518">
        <ele>148.6</ele>
        <time>2022-06-08T16:45:13.816Z</time>
      </trkpt>
      <trkpt lat="43.60903" lon="3.73526">
        <ele>148.5</ele>
        <time>2022-06-08T16:45:14.866Z</time>
      </trkpt>
      <trkpt lat="43.60904" lon="3.73532">
        <ele>148.3</ele>
        <time>2022-06-08T16:45:15.432Z</time>
      </trkpt>
      <trkpt lat="43.6091" lon="3.73556">
        <ele>147</ele>
        <time>2022-06-08T16:45:17.559Z</time>
      </trkpt>
      <trkpt lat="43.60929" lon="3.73615">
        <ele>143.3</ele>
        <time>2022-06-08T16:45:22.967Z</time>
      </trkpt>
      <trkpt lat="43.6093" lon="3.73617">
        <ele>143.3</ele>
        <time>2022-06-08T16:45:23.480Z</time>
      </trkpt>
      <trkpt lat="43.60932" lon="3.73624">
        <ele>143.1</ele>
        <time>2022-06-08T16:45:24.227Z</time>
      </trkpt>
      <trkpt lat="43.60949" lon="3.7367">
        <ele>143.4</ele>
        <time>2022-06-08T16:45:35.989Z</time>
        <extensions>
          <visugpx:TrkExtension xmlns:visugpx="https://www.visugpx.com/editgpx/">
            <visugpx:node>55</visugpx:node>
            </visugpx:TrkExtension>
        </extensions>
      </trkpt>
      <trkpt lat="43.60949" lon="3.73672">
        <ele>143.5</ele>
        <time>2022-06-08T16:45:36.832Z</time>
      </trkpt>
      <trkpt lat="43.60932" lon="3.73705">
        <ele>143</ele>
        <time>2022-06-08T16:45:41.813Z</time>
      </trkpt>
      <trkpt lat="43.609" lon="3.73753">
        <ele>145.5</ele>
        <time>2022-06-08T16:46:06.356Z</time>
      </trkpt>
      <trkpt lat="43.60896" lon="3.73755">
        <ele>145.4</ele>
        <time>2022-06-08T16:46:07.026Z</time>
      </trkpt>
      <trkpt lat="43.60885" lon="3.73777">
        <ele>145.8</ele>
        <time>2022-06-08T16:46:13.985Z</time>
      </trkpt>
      <trkpt lat="43.60879" lon="3.7379">
        <ele>144.9</ele>
        <time>2022-06-08T16:46:15.276Z</time>
      </trkpt>
      <trkpt lat="43.60877" lon="3.73804">
        <ele>143.8</ele>
        <time>2022-06-08T16:46:16.472Z</time>
      </trkpt>
      <trkpt lat="43.60872" lon="3.73814">
        <ele>143.2</ele>
        <time>2022-06-08T16:46:17.489Z</time>
        <extensions>
          <visugpx:TrkExtension xmlns:visugpx="https://www.visugpx.com/editgpx/">
            <visugpx:node>56</visugpx:node>
            </visugpx:TrkExtension>
        </extensions>
      </trkpt>
      <trkpt lat="43.60871" lon="3.73816">
        <ele>143.2</ele>
        <time>2022-06-08T16:46:18.002Z</time>
      </trkpt>
      <trkpt lat="43.60878" lon="3.73822">
        <ele>143.7</ele>
        <time>2022-06-08T16:46:22.517Z</time>
      </trkpt>
      <trkpt lat="43.6087" lon="3.73869">
        <ele>141.8</ele>
        <time>2022-06-08T16:46:26.603Z</time>
      </trkpt>
      <trkpt lat="43.60871" lon="3.73877">
        <ele>141.2</ele>
        <time>2022-06-08T16:46:27.283Z</time>
      </trkpt>
      <trkpt lat="43.6087" lon="3.73994">
        <ele>134</ele>
        <time>2022-06-08T16:46:37.083Z</time>
      </trkpt>
      <trkpt lat="43.60869" lon="3.74017">
        <ele>132.9</ele>
        <time>2022-06-08T16:46:38.861Z</time>
      </trkpt>
      <trkpt lat="43.60866" lon="3.74037">
        <ele>131.7</ele>
        <time>2022-06-08T16:46:40.572Z</time>
      </trkpt>
      <trkpt lat="43.60863" lon="3.74046">
        <ele>130.9</ele>
        <time>2022-06-08T16:46:41.402Z</time>
      </trkpt>
      <trkpt lat="43.60859" lon="3.74054">
        <ele>130.3</ele>
        <time>2022-06-08T16:46:42.216Z</time>
      </trkpt>
      <trkpt lat="43.60861" lon="3.7406">
        <ele>129.7</ele>
        <time>2022-06-08T16:46:42.770Z</time>
        <extensions>
          <visugpx:TrkExtension xmlns:visugpx="https://www.visugpx.com/editgpx/">
            <visugpx:node>57</visugpx:node>
            </visugpx:TrkExtension>
        </extensions>
      </trkpt>
      <trkpt lat="43.60864" lon="3.74068">
        <ele>129</ele>
        <time>2022-06-08T16:46:43.524Z</time>
      </trkpt>
      <trkpt lat="43.60882" lon="3.74123">
        <ele>125.5</ele>
        <time>2022-06-08T16:46:48.580Z</time>
      </trkpt>
      <trkpt lat="43.60884" lon="3.74136">
        <ele>124.9</ele>
        <time>2022-06-08T16:46:49.634Z</time>
      </trkpt>
      <trkpt lat="43.60883" lon="3.74171">
        <ele>123.4</ele>
        <time>2022-06-08T16:46:52.484Z</time>
      </trkpt>
      <trkpt lat="43.60884" lon="3.7418">
        <ele>123.2</ele>
        <time>2022-06-08T16:46:53.448Z</time>
      </trkpt>
      <trkpt lat="43.60885" lon="3.74194">
        <ele>122.7</ele>
        <time>2022-06-08T16:46:54.694Z</time>
      </trkpt>
      <trkpt lat="43.60895" lon="3.74234">
        <ele>122.3</ele>
        <time>2022-06-08T16:47:00.163Z</time>
      </trkpt>
      <trkpt lat="43.60899" lon="3.74265">
        <ele>122.8</ele>
        <time>2022-06-08T16:47:08.478Z</time>
      </trkpt>
      <trkpt lat="43.60899" lon="3.74276">
        <ele>123.1</ele>
        <time>2022-06-08T16:47:12.022Z</time>
        <extensions>
          <visugpx:TrkExtension xmlns:visugpx="https://www.visugpx.com/editgpx/">
            <visugpx:node>58</visugpx:node>
            </visugpx:TrkExtension>
        </extensions>
      </trkpt>
      <trkpt lat="43.60902" lon="3.74344">
        <ele>124.1</ele>
        <time>2022-06-08T16:47:29.676Z</time>
      </trkpt>
      <trkpt lat="43.60906" lon="3.74373">
        <ele>124.8</ele>
        <time>2022-06-08T16:47:38.574Z</time>
      </trkpt>
      <trkpt lat="43.60915" lon="3.74398">
        <ele>125.2</ele>
        <time>2022-06-08T16:47:45.770Z</time>
      </trkpt>
      <trkpt lat="43.60922" lon="3.74412">
        <ele>124.7</ele>
        <time>2022-06-08T16:47:47.397Z</time>
      </trkpt>
      <trkpt lat="43.60934" lon="3.74424">
        <ele>125.1</ele>
        <time>2022-06-08T16:47:53.133Z</time>
      </trkpt>
      <trkpt lat="43.60943" lon="3.74437">
        <ele>125.2</ele>
        <time>2022-06-08T16:47:57.216Z</time>
      </trkpt>
      <trkpt lat="43.60947" lon="3.74447">
        <ele>124.8</ele>
        <time>2022-06-08T16:47:58.233Z</time>
        <extensions>
          <visugpx:TrkExtension xmlns:visugpx="https://www.visugpx.com/editgpx/">
            <visugpx:node>59</visugpx:node>
            </visugpx:TrkExtension>
        </extensions>
      </trkpt>
      <trkpt lat="43.60974" lon="3.7454">
        <ele>121</ele>
        <time>2022-06-08T16:48:06.855Z</time>
      </trkpt>
      <trkpt lat="43.60993" lon="3.74583">
        <ele>117.5</ele>
        <time>2022-06-08T16:48:11.075Z</time>
      </trkpt>
      <trkpt lat="43.60998" lon="3.74598">
        <ele>117.1</ele>
        <time>2022-06-08T16:48:12.768Z</time>
      </trkpt>
      <trkpt lat="43.60999" lon="3.74597">
        <ele>117.1</ele>
        <time>2022-06-08T16:48:13.128Z</time>
        <extensions>
          <visugpx:TrkExtension xmlns:visugpx="https://www.visugpx.com/editgpx/">
            <visugpx:node>60</visugpx:node>
            </visugpx:TrkExtension>
        </extensions>
      </trkpt>
      <trkpt lat="43.60998" lon="3.74598">
        <ele>117.1</ele>
        <time>2022-06-08T16:48:13.488Z</time>
      </trkpt>
      <trkpt lat="43.60989" lon="3.74612">
        <ele>117.3</ele>
        <time>2022-06-08T16:48:18.055Z</time>
      </trkpt>
      <trkpt lat="43.6098" lon="3.74624">
        <ele>116.7</ele>
        <time>2022-06-08T16:48:19.600Z</time>
      </trkpt>
      <trkpt lat="43.60969" lon="3.74636">
        <ele>116.4</ele>
        <time>2022-06-08T16:48:21.861Z</time>
      </trkpt>
      <trkpt lat="43.60954" lon="3.74649">
        <ele>116.8</ele>
        <time>2022-06-08T16:48:28.369Z</time>
      </trkpt>
      <trkpt lat="43.60922" lon="3.74673">
        <ele>117.5</ele>
        <time>2022-06-08T16:48:41.249Z</time>
      </trkpt>
      <trkpt lat="43.60904" lon="3.74682">
        <ele>117.4</ele>
        <time>2022-06-08T16:48:46.414Z</time>
      </trkpt>
      <trkpt lat="43.60883" lon="3.74689">
        <ele>117.4</ele>
        <time>2022-06-08T16:48:52.710Z</time>
      </trkpt>
      <trkpt lat="43.60868" lon="3.7469">
        <ele>117.8</ele>
        <time>2022-06-08T16:48:58.499Z</time>
      </trkpt>
      <trkpt lat="43.60853" lon="3.74689">
        <ele>117.7</ele>
        <time>2022-06-08T16:49:02.470Z</time>
      </trkpt>
      <trkpt lat="43.60848" lon="3.74689">
        <ele>117.4</ele>
        <time>2022-06-08T16:49:03.028Z</time>
        <extensions>
          <visugpx:TrkExtension xmlns:visugpx="https://www.visugpx.com/editgpx/">
            <visugpx:node>61</visugpx:node>
            </visugpx:TrkExtension>
        </extensions>
      </trkpt>
      <trkpt lat="43.60833" lon="3.74689">
        <ele>116.8</ele>
        <time>2022-06-08T16:49:05.020Z</time>
      </trkpt>
      <trkpt lat="43.60794" lon="3.74691">
        <ele>113.9</ele>
        <time>2022-06-08T16:49:09.535Z</time>
      </trkpt>
      <trkpt lat="43.60778" lon="3.74689">
        <ele>112.4</ele>
        <time>2022-06-08T16:49:11.393Z</time>
        <extensions>
          <visugpx:TrkExtension xmlns:visugpx="https://www.visugpx.com/editgpx/">
            <visugpx:node>62</visugpx:node>
            </visugpx:TrkExtension>
        </extensions>
      </trkpt>
      <trkpt lat="43.60776" lon="3.74689">
        <ele>112.1</ele>
        <time>2022-06-08T16:49:11.625Z</time>
        <extensions>
          <visugpx:TrkExtension xmlns:visugpx="https://www.visugpx.com/editgpx/">
            <visugpx:node>63</visugpx:node>
            </visugpx:TrkExtension>
        </extensions>
      </trkpt>
      <trkpt lat="43.60769" lon="3.74695">
        <ele>111.4</ele>
        <time>2022-06-08T16:49:12.578Z</time>
      </trkpt>
      <trkpt lat="43.60764" lon="3.74693">
        <ele>110.4</ele>
        <time>2022-06-08T16:49:13.180Z</time>
      </trkpt>
      <trkpt lat="43.60761" lon="3.74688">
        <ele>109.6</ele>
        <time>2022-06-08T16:49:13.724Z</time>
      </trkpt>
      <trkpt lat="43.60764" lon="3.74675">
        <ele>109.1</ele>
        <time>2022-06-08T16:49:14.916Z</time>
      </trkpt>
      <trkpt lat="43.60757" lon="3.74665">
        <ele>107.7</ele>
        <time>2022-06-08T16:49:16.081Z</time>
      </trkpt>
      <trkpt lat="43.60737" lon="3.74647">
        <ele>105.9</ele>
        <time>2022-06-08T16:49:18.842Z</time>
      </trkpt>
      <trkpt lat="43.60728" lon="3.74642">
        <ele>105.8</ele>
        <time>2022-06-08T16:49:20.637Z</time>
      </trkpt>
      <trkpt lat="43.6072" lon="3.74634">
        <ele>106.1</ele>
        <time>2022-06-08T16:49:24.625Z</time>
      </trkpt>
      <trkpt lat="43.60697" lon="3.74625">
        <ele>107.4</ele>
        <time>2022-06-08T16:49:37.167Z</time>
      </trkpt>
      <trkpt lat="43.60631" lon="3.7459">
        <ele>114.3</ele>
        <time>2022-06-08T16:50:29.521Z</time>
      </trkpt>
      <trkpt lat="43.60625" lon="3.74585">
        <ele>114.5</ele>
        <time>2022-06-08T16:50:32.286Z</time>
        <extensions>
          <visugpx:TrkExtension xmlns:visugpx="https://www.visugpx.com/editgpx/">
            <visugpx:node>64</visugpx:node>
            </visugpx:TrkExtension>
        </extensions>
      </trkpt>
      <trkpt lat="43.60623" lon="3.74582">
        <ele>114.6</ele>
        <time>2022-06-08T16:50:33.533Z</time>
      </trkpt>
      <trkpt lat="43.60612" lon="3.74613">
        <ele>115</ele>
        <time>2022-06-08T16:50:42.069Z</time>
      </trkpt>
      <trkpt lat="43.60599" lon="3.7466">
        <ele>113.7</ele>
        <time>2022-06-08T16:50:47.115Z</time>
      </trkpt>
      <trkpt lat="43.6059" lon="3.74689">
        <ele>113.2</ele>
        <time>2022-06-08T16:50:50.780Z</time>
      </trkpt>
      <trkpt lat="43.60588" lon="3.74718">
        <ele>113</ele>
        <time>2022-06-08T16:50:54.726Z</time>
      </trkpt>
      <trkpt lat="43.6059" lon="3.74748">
        <ele>112.3</ele>
        <time>2022-06-08T16:50:57.859Z</time>
      </trkpt>
      <trkpt lat="43.6059" lon="3.74774">
        <ele>111.8</ele>
        <time>2022-06-08T16:51:00.725Z</time>
      </trkpt>
      <trkpt lat="43.60583" lon="3.74807">
        <ele>110.9</ele>
        <time>2022-06-08T16:51:04.158Z</time>
      </trkpt>
      <trkpt lat="43.60562" lon="3.7488">
        <ele>107.2</ele>
        <time>2022-06-08T16:51:10.260Z</time>
      </trkpt>
      <trkpt lat="43.60551" lon="3.74921">
        <ele>105.4</ele>
        <time>2022-06-08T16:51:13.885Z</time>
      </trkpt>
      <trkpt lat="43.6054" lon="3.74959">
        <ele>103.2</ele>
        <time>2022-06-08T16:51:17.313Z</time>
      </trkpt>
      <trkpt lat="43.60538" lon="3.74961">
        <ele>103.1</ele>
        <time>2022-06-08T16:51:17.640Z</time>
        <extensions>
          <visugpx:TrkExtension xmlns:visugpx="https://www.visugpx.com/editgpx/">
            <visugpx:node>65</visugpx:node>
            </visugpx:TrkExtension>
        </extensions>
      </trkpt>
      <trkpt lat="43.60526" lon="3.74977">
        <ele>102.9</ele>
        <time>2022-06-08T16:51:20.658Z</time>
      </trkpt>
      <trkpt lat="43.60493" lon="3.75007">
        <ele>101.9</ele>
        <time>2022-06-08T16:51:26.757Z</time>
      </trkpt>
      <trkpt lat="43.60464" lon="3.75032">
        <ele>100.8</ele>
        <time>2022-06-08T16:51:31.662Z</time>
        <extensions>
          <visugpx:TrkExtension xmlns:visugpx="https://www.visugpx.com/editgpx/">
            <visugpx:node>66</visugpx:node>
            </visugpx:TrkExtension>
        </extensions>
      </trkpt>
      <trkpt lat="43.60461" lon="3.75034">
        <ele>100.8</ele>
        <time>2022-06-08T16:51:32.633Z</time>
      </trkpt>
      <trkpt lat="43.60459" lon="3.75026">
        <ele>100.5</ele>
        <time>2022-06-08T16:51:33.383Z</time>
      </trkpt>
      <trkpt lat="43.60412" lon="3.75104">
        <ele>101.4</ele>
        <time>2022-06-08T16:51:57.503Z</time>
      </trkpt>
      <trkpt lat="43.60347" lon="3.75193">
        <ele>101.5</ele>
        <time>2022-06-08T16:52:24.448Z</time>
      </trkpt>
      <trkpt lat="43.6027" lon="3.75301">
        <ele>101.5</ele>
        <time>2022-06-08T16:52:56.433Z</time>
      </trkpt>
      <trkpt lat="43.6027" lon="3.75306">
        <ele>101.7</ele>
        <time>2022-06-08T16:52:58.343Z</time>
        <extensions>
          <visugpx:TrkExtension xmlns:visugpx="https://www.visugpx.com/editgpx/">
            <visugpx:node>67</visugpx:node>
            </visugpx:TrkExtension>
        </extensions>
      </trkpt>
      <trkpt lat="43.60277" lon="3.75353">
        <ele>102.3</ele>
        <time>2022-06-08T16:53:10.372Z</time>
      </trkpt>
      <trkpt lat="43.60277" lon="3.7537">
        <ele>101.7</ele>
        <time>2022-06-08T16:53:11.882Z</time>
      </trkpt>
      <trkpt lat="43.60272" lon="3.75398">
        <ele>101.9</ele>
        <time>2022-06-08T16:53:18.553Z</time>
      </trkpt>
      <trkpt lat="43.60276" lon="3.75413">
        <ele>102</ele>
        <time>2022-06-08T16:53:22.216Z</time>
      </trkpt>
      <trkpt lat="43.6029" lon="3.75427">
        <ele>101.2</ele>
        <time>2022-06-08T16:53:24.383Z</time>
      </trkpt>
      <trkpt lat="43.60304" lon="3.75444">
        <ele>101.1</ele>
        <time>2022-06-08T16:53:29.403Z</time>
      </trkpt>
      <trkpt lat="43.60312" lon="3.75459">
        <ele>100.4</ele>
        <time>2022-06-08T16:53:31.013Z</time>
      </trkpt>
      <trkpt lat="43.60313" lon="3.75495">
        <ele>99.5</ele>
        <time>2022-06-08T16:53:34.669Z</time>
      </trkpt>
      <trkpt lat="43.60306" lon="3.75537">
        <ele>100.5</ele>
        <time>2022-06-08T16:53:47.543Z</time>
      </trkpt>
      <trkpt lat="43.60312" lon="3.75604">
        <ele>98.6</ele>
        <time>2022-06-08T16:53:54.106Z</time>
        <extensions>
          <visugpx:TrkExtension xmlns:visugpx="https://www.visugpx.com/editgpx/">
            <visugpx:node>68</visugpx:node>
            </visugpx:TrkExtension>
        </extensions>
      </trkpt>
      <trkpt lat="43.60312" lon="3.7562">
        <ele>98.3</ele>
        <time>2022-06-08T16:53:55.883Z</time>
      </trkpt>
      <trkpt lat="43.60308" lon="3.7564">
        <ele>98.4</ele>
        <time>2022-06-08T16:54:00.546Z</time>
      </trkpt>
      <trkpt lat="43.6027" lon="3.75736">
        <ele>97.2</ele>
        <time>2022-06-08T16:54:14.321Z</time>
      </trkpt>
      <trkpt lat="43.60251" lon="3.75788">
        <ele>98</ele>
        <time>2022-06-08T16:54:29.198Z</time>
      </trkpt>
      <trkpt lat="43.60237" lon="3.75817">
        <ele>97.8</ele>
        <time>2022-06-08T16:54:34.019Z</time>
      </trkpt>
      <trkpt lat="43.60222" lon="3.75836">
        <ele>97.2</ele>
        <time>2022-06-08T16:54:37.023Z</time>
      </trkpt>
      <trkpt lat="43.60189" lon="3.7586">
        <ele>96.6</ele>
        <time>2022-06-08T16:54:43.432Z</time>
      </trkpt>
      <trkpt lat="43.60167" lon="3.75881">
        <ele>95.7</ele>
        <time>2022-06-08T16:54:47.212Z</time>
        <extensions>
          <visugpx:TrkExtension xmlns:visugpx="https://www.visugpx.com/editgpx/">
            <visugpx:node>69</visugpx:node>
            </visugpx:TrkExtension>
        </extensions>
      </trkpt>
      <trkpt lat="43.60149" lon="3.75885">
        <ele>94.7</ele>
        <time>2022-06-08T16:54:49.335Z</time>
      </trkpt>
      <trkpt lat="43.60127" lon="3.75898">
        <ele>93.6</ele>
        <time>2022-06-08T16:54:52.342Z</time>
      </trkpt>
      <trkpt lat="43.60117" lon="3.75911">
        <ele>92.8</ele>
        <time>2022-06-08T16:54:53.897Z</time>
        <extensions>
          <visugpx:TrkExtension xmlns:visugpx="https://www.visugpx.com/editgpx/">
            <visugpx:node>70</visugpx:node>
            </visugpx:TrkExtension>
        </extensions>
      </trkpt>
      <trkpt lat="43.60113" lon="3.75914">
        <ele>92.3</ele>
        <time>2022-06-08T16:54:54.424Z</time>
      </trkpt>
      <trkpt lat="43.60101" lon="3.75937">
        <ele>92.6</ele>
        <time>2022-06-08T16:55:01.331Z</time>
      </trkpt>
      <trkpt lat="43.60083" lon="3.75977">
        <ele>91</ele>
        <time>2022-06-08T16:55:05.581Z</time>
      </trkpt>
      <trkpt lat="43.60077" lon="3.76014">
        <ele>91.3</ele>
        <time>2022-06-08T16:55:14.473Z</time>
      </trkpt>
      <trkpt lat="43.60076" lon="3.76018">
        <ele>91.4</ele>
        <time>2022-06-08T16:55:15.747Z</time>
        <extensions>
          <visugpx:TrkExtension xmlns:visugpx="https://www.visugpx.com/editgpx/">
            <visugpx:node>71</visugpx:node>
            </visugpx:TrkExtension>
        </extensions>
      </trkpt>
      <trkpt lat="43.60074" lon="3.76027">
        <ele>91.7</ele>
        <time>2022-06-08T16:55:19.075Z</time>
      </trkpt>
      <trkpt lat="43.60064" lon="3.76038">
        <ele>92.3</ele>
        <time>2022-06-08T16:55:25.462Z</time>
      </trkpt>
      <trkpt lat="43.60062" lon="3.76068">
        <ele>92.5</ele>
        <time>2022-06-08T16:55:32.402Z</time>
      </trkpt>
      <trkpt lat="43.60068" lon="3.761">
        <ele>91.8</ele>
        <time>2022-06-08T16:55:35.944Z</time>
      </trkpt>
      <trkpt lat="43.60076" lon="3.76123">
        <ele>91.3</ele>
        <time>2022-06-08T16:55:38.742Z</time>
      </trkpt>
      <trkpt lat="43.60096" lon="3.7615">
        <ele>90.7</ele>
        <time>2022-06-08T16:55:43.251Z</time>
      </trkpt>
      <trkpt lat="43.60106" lon="3.76167">
        <ele>90.1</ele>
        <time>2022-06-08T16:55:45.402Z</time>
      </trkpt>
      <trkpt lat="43.60136" lon="3.76212">
        <ele>89</ele>
        <time>2022-06-08T16:55:52.275Z</time>
      </trkpt>
      <trkpt lat="43.60144" lon="3.76238">
        <ele>88.3</ele>
        <time>2022-06-08T16:55:55.150Z</time>
      </trkpt>
      <trkpt lat="43.60147" lon="3.76267">
        <ele>87.8</ele>
        <time>2022-06-08T16:55:58.489Z</time>
        <extensions>
          <visugpx:TrkExtension xmlns:visugpx="https://www.visugpx.com/editgpx/">
            <visugpx:node>72</visugpx:node>
            </visugpx:TrkExtension>
        </extensions>
      </trkpt>
      <trkpt lat="43.60149" lon="3.76276">
        <ele>87.5</ele>
        <time>2022-06-08T16:55:59.361Z</time>
      </trkpt>
      <trkpt lat="43.60147" lon="3.763">
        <ele>87</ele>
        <time>2022-06-08T16:56:01.968Z</time>
      </trkpt>
      <trkpt lat="43.60139" lon="3.76329">
        <ele>85.5</ele>
        <time>2022-06-08T16:56:04.567Z</time>
      </trkpt>
      <trkpt lat="43.60118" lon="3.76397">
        <ele>82.7</ele>
        <time>2022-06-08T16:56:10.934Z</time>
      </trkpt>
      <trkpt lat="43.60079" lon="3.76451">
        <ele>80.9</ele>
        <time>2022-06-08T16:56:18.824Z</time>
      </trkpt>
      <trkpt lat="43.60015" lon="3.76511">
        <ele>79.4</ele>
        <time>2022-06-08T16:56:31.600Z</time>
      </trkpt>
      <trkpt lat="43.59992" lon="3.76539">
        <ele>78.3</ele>
        <time>2022-06-08T16:56:35.838Z</time>
      </trkpt>
      <trkpt lat="43.59987" lon="3.76547">
        <ele>78.4</ele>
        <time>2022-06-08T16:56:38.372Z</time>
        <extensions>
          <visugpx:TrkExtension xmlns:visugpx="https://www.visugpx.com/editgpx/">
            <visugpx:node>73</visugpx:node>
            </visugpx:TrkExtension>
        </extensions>
      </trkpt>
      <trkpt lat="43.59971" lon="3.76575">
        <ele>77.1</ele>
        <time>2022-06-08T16:56:41.496Z</time>
      </trkpt>
      <trkpt lat="43.59965" lon="3.76599">
        <ele>76.7</ele>
        <time>2022-06-08T16:56:44.450Z</time>
      </trkpt>
      <trkpt lat="43.5995" lon="3.76717">
        <ele>75.2</ele>
        <time>2022-06-08T16:56:59.143Z</time>
      </trkpt>
      <trkpt lat="43.59938" lon="3.76777">
        <ele>73.7</ele>
        <time>2022-06-08T16:57:05.539Z</time>
      </trkpt>
      <trkpt lat="43.59911" lon="3.76895">
        <ele>71.3</ele>
        <time>2022-06-08T16:57:19.151Z</time>
        <extensions>
          <visugpx:TrkExtension xmlns:visugpx="https://www.visugpx.com/editgpx/">
            <visugpx:node>74</visugpx:node>
            </visugpx:TrkExtension>
        </extensions>
      </trkpt>
      <trkpt lat="43.59899" lon="3.76945">
        <ele>71</ele>
        <time>2022-06-08T16:57:26.444Z</time>
      </trkpt>
      <trkpt lat="43.59876" lon="3.76998">
        <ele>70</ele>
        <time>2022-06-08T16:57:33.585Z</time>
      </trkpt>
      <trkpt lat="43.59851" lon="3.77036">
        <ele>67.7</ele>
        <time>2022-06-08T16:57:37.673Z</time>
        <extensions>
          <visugpx:TrkExtension xmlns:visugpx="https://www.visugpx.com/editgpx/">
            <visugpx:node>75</visugpx:node>
            </visugpx:TrkExtension>
        </extensions>
      </trkpt>
      <trkpt lat="43.59843" lon="3.77049">
        <ele>67</ele>
        <time>2022-06-08T16:57:39.090Z</time>
      </trkpt>
      <trkpt lat="43.59813" lon="3.77086">
        <ele>66.6</ele>
        <time>2022-06-08T16:57:46.568Z</time>
      </trkpt>
      <trkpt lat="43.59768" lon="3.77136">
        <ele>64.5</ele>
        <time>2022-06-08T16:57:54.514Z</time>
      </trkpt>
      <trkpt lat="43.59724" lon="3.77177">
        <ele>62.7</ele>
        <time>2022-06-08T16:58:01.997Z</time>
      </trkpt>
      <trkpt lat="43.59727" lon="3.7718">
        <ele>62.6</ele>
        <time>2022-06-08T16:58:02.559Z</time>
        <extensions>
          <visugpx:TrkExtension xmlns:visugpx="https://www.visugpx.com/editgpx/">
            <visugpx:node>76</visugpx:node>
            </visugpx:TrkExtension>
        </extensions>
      </trkpt>
      <trkpt lat="43.59761" lon="3.77214">
        <ele>62.6</ele>
        <time>2022-06-08T16:58:14.793Z</time>
      </trkpt>
      <trkpt lat="43.5982" lon="3.77267">
        <ele>63.7</ele>
        <time>2022-06-08T16:58:38.732Z</time>
      </trkpt>
      <trkpt lat="43.59853" lon="3.77292">
        <ele>65.1</ele>
        <time>2022-06-08T16:58:55.370Z</time>
      </trkpt>
      <trkpt lat="43.59855" lon="3.77288">
        <ele>65.1</ele>
        <time>2022-06-08T16:58:56.396Z</time>
        <extensions>
          <visugpx:TrkExtension xmlns:visugpx="https://www.visugpx.com/editgpx/">
            <visugpx:node>77</visugpx:node>
            </visugpx:TrkExtension>
        </extensions>
      </trkpt>
      <trkpt lat="43.59853" lon="3.77292">
        <ele>65.1</ele>
        <time>2022-06-08T16:58:57.422Z</time>
      </trkpt>
      <trkpt lat="43.59942" lon="3.77413">
        <ele>67.1</ele>
        <time>2022-06-08T16:59:40.077Z</time>
      </trkpt>
      <trkpt lat="43.59948" lon="3.77417">
        <ele>67.1</ele>
        <time>2022-06-08T16:59:42.019Z</time>
        <extensions>
          <visugpx:TrkExtension xmlns:visugpx="https://www.visugpx.com/editgpx/">
            <visugpx:node>78</visugpx:node>
            </visugpx:TrkExtension>
        </extensions>
      </trkpt>
      <trkpt lat="43.5998" lon="3.77441">
        <ele>66.2</ele>
        <time>2022-06-08T16:59:47.677Z</time>
      </trkpt>
      <trkpt lat="43.60029" lon="3.77489">
        <ele>62.8</ele>
        <time>2022-06-08T16:59:54.570Z</time>
      </trkpt>
      <trkpt lat="43.60062" lon="3.7751">
        <ele>61.6</ele>
        <time>2022-06-08T16:59:59.738Z</time>
      </trkpt>
      <trkpt lat="43.60066" lon="3.77515">
        <ele>61.5</ele>
        <time>2022-06-08T17:00:00.638Z</time>
        <extensions>
          <visugpx:TrkExtension xmlns:visugpx="https://www.visugpx.com/editgpx/">
            <visugpx:node>79</visugpx:node>
            </visugpx:TrkExtension>
        </extensions>
      </trkpt>
      <trkpt lat="43.60068" lon="3.77519">
        <ele>61.3</ele>
        <time>2022-06-08T17:00:01.042Z</time>
      </trkpt>
      <trkpt lat="43.60081" lon="3.77556">
        <ele>59</ele>
        <time>2022-06-08T17:00:04.487Z</time>
      </trkpt>
      <trkpt lat="43.60089" lon="3.7757">
        <ele>58.2</ele>
        <time>2022-06-08T17:00:05.906Z</time>
      </trkpt>
      <trkpt lat="43.60146" lon="3.77636">
        <ele>55.2</ele>
        <time>2022-06-08T17:00:15.755Z</time>
      </trkpt>
      <trkpt lat="43.60199" lon="3.77668">
        <ele>53</ele>
        <time>2022-06-08T17:00:23.584Z</time>
        <extensions>
          <visugpx:TrkExtension xmlns:visugpx="https://www.visugpx.com/editgpx/">
            <visugpx:node>80</visugpx:node>
            </visugpx:TrkExtension>
        </extensions>
      </trkpt>
      <trkpt lat="43.60225" lon="3.77684">
        <ele>52.4</ele>
        <time>2022-06-08T17:00:28.193Z</time>
      </trkpt>
      <trkpt lat="43.60298" lon="3.7772">
        <ele>51.1</ele>
        <time>2022-06-08T17:00:41.404Z</time>
      </trkpt>
      <trkpt lat="43.60311" lon="3.77727">
        <ele>51</ele>
        <time>2022-06-08T17:00:45.068Z</time>
      </trkpt>
      <trkpt lat="43.60338" lon="3.7774">
        <ele>50.3</ele>
        <time>2022-06-08T17:00:49.523Z</time>
      </trkpt>
      <trkpt lat="43.60347" lon="3.77745">
        <ele>50.1</ele>
        <time>2022-06-08T17:00:51.102Z</time>
      </trkpt>
      <trkpt lat="43.60352" lon="3.77746">
        <ele>50</ele>
        <time>2022-06-08T17:00:51.932Z</time>
      </trkpt>
      <trkpt lat="43.60354" lon="3.77746">
        <ele>50</ele>
        <time>2022-06-08T17:00:52.515Z</time>
      </trkpt>
      <trkpt lat="43.6036" lon="3.77744">
        <ele>50</ele>
        <time>2022-06-08T17:00:54.314Z</time>
      </trkpt>
      <trkpt lat="43.60364" lon="3.77743">
        <ele>50.2</ele>
        <time>2022-06-08T17:00:56.375Z</time>
      </trkpt>
      <trkpt lat="43.60371" lon="3.77746">
        <ele>50.7</ele>
        <time>2022-06-08T17:01:00.616Z</time>
      </trkpt>
      <trkpt lat="43.60376" lon="3.7775">
        <ele>51.1</ele>
        <time>2022-06-08T17:01:03.985Z</time>
        <extensions>
          <visugpx:TrkExtension xmlns:visugpx="https://www.visugpx.com/editgpx/">
            <visugpx:node>81</visugpx:node>
            </visugpx:TrkExtension>
        </extensions>
      </trkpt>
      <trkpt lat="43.60379" lon="3.77752">
        <ele>51.4</ele>
        <time>2022-06-08T17:01:06.286Z</time>
      </trkpt>
      <trkpt lat="43.6039" lon="3.77765">
        <ele>52.6</ele>
        <time>2022-06-08T17:01:15.690Z</time>
      </trkpt>
      <trkpt lat="43.60426" lon="3.77813">
        <ele>56.3</ele>
        <time>2022-06-08T17:01:45.934Z</time>
      </trkpt>
      <trkpt lat="43.60468" lon="3.77878">
        <ele>58.3</ele>
        <time>2022-06-08T17:02:11.842Z</time>
      </trkpt>
      <trkpt lat="43.60479" lon="3.77896">
        <ele>58.5</ele>
        <time>2022-06-08T17:02:17.410Z</time>
      </trkpt>
      <trkpt lat="43.60495" lon="3.77924">
        <ele>59.2</ele>
        <time>2022-06-08T17:02:27.423Z</time>
      </trkpt>
      <trkpt lat="43.60499" lon="3.7793">
        <ele>59</ele>
        <time>2022-06-08T17:02:28.256Z</time>
      </trkpt>
      <trkpt lat="43.60556" lon="3.77995">
        <ele>58.2</ele>
        <time>2022-06-08T17:02:41.839Z</time>
      </trkpt>
      <trkpt lat="43.60562" lon="3.78002">
        <ele>58.2</ele>
        <time>2022-06-08T17:02:44.128Z</time>
      </trkpt>
      <trkpt lat="43.60565" lon="3.78009">
        <ele>58.3</ele>
        <time>2022-06-08T17:02:46.161Z</time>
      </trkpt>
      <trkpt lat="43.60565" lon="3.78013">
        <ele>58.3</ele>
        <time>2022-06-08T17:02:47.005Z</time>
      </trkpt>
      <trkpt lat="43.60569" lon="3.78012">
        <ele>58.5</ele>
        <time>2022-06-08T17:02:49.065Z</time>
        <extensions>
          <visugpx:TrkExtension xmlns:visugpx="https://www.visugpx.com/editgpx/">
            <visugpx:node>82</visugpx:node>
            </visugpx:TrkExtension>
        </extensions>
      </trkpt>
      <trkpt lat="43.60565" lon="3.78013">
        <ele>58.3</ele>
        <time>2022-06-08T17:02:49.562Z</time>
      </trkpt>
      <trkpt lat="43.60558" lon="3.78015">
        <ele>58.1</ele>
        <time>2022-06-08T17:02:50.634Z</time>
      </trkpt>
      <trkpt lat="43.60557" lon="3.78017">
        <ele>58.1</ele>
        <time>2022-06-08T17:02:51.147Z</time>
      </trkpt>
      <trkpt lat="43.60555" lon="3.78015">
        <ele>58</ele>
        <time>2022-06-08T17:02:51.473Z</time>
      </trkpt>
      <trkpt lat="43.60548" lon="3.78012">
        <ele>57.7</ele>
        <time>2022-06-08T17:02:52.438Z</time>
      </trkpt>
      <trkpt lat="43.60545" lon="3.78013">
        <ele>57.6</ele>
        <time>2022-06-08T17:02:52.880Z</time>
      </trkpt>
      <trkpt lat="43.60542" lon="3.78015">
        <ele>57.5</ele>
        <time>2022-06-08T17:02:53.369Z</time>
      </trkpt>
      <trkpt lat="43.6054" lon="3.78019">
        <ele>57.4</ele>
        <time>2022-06-08T17:02:53.894Z</time>
        <extensions>
          <visugpx:TrkExtension xmlns:visugpx="https://www.visugpx.com/editgpx/">
            <visugpx:node>83</visugpx:node>
            </visugpx:TrkExtension>
        </extensions>
      </trkpt>
      <trkpt lat="43.60539" lon="3.78019">
        <ele>57.4</ele>
        <time>2022-06-08T17:02:54.185Z</time>
      </trkpt>
      <trkpt lat="43.60538" lon="3.78023">
        <ele>57.4</ele>
        <time>2022-06-08T17:02:55.078Z</time>
      </trkpt>
      <trkpt lat="43.60538" lon="3.78026">
        <ele>57.4</ele>
        <time>2022-06-08T17:02:55.711Z</time>
      </trkpt>
      <trkpt lat="43.60542" lon="3.78037">
        <ele>57.5</ele>
        <time>2022-06-08T17:02:58.606Z</time>
      </trkpt>
      <trkpt lat="43.60544" lon="3.78039">
        <ele>57.5</ele>
        <time>2022-06-08T17:02:59.326Z</time>
      </trkpt>
      <trkpt lat="43.60551" lon="3.7804">
        <ele>57.5</ele>
        <time>2022-06-08T17:03:01.377Z</time>
      </trkpt>
      <trkpt lat="43.60554" lon="3.78038">
        <ele>57.6</ele>
        <time>2022-06-08T17:03:02.716Z</time>
      </trkpt>
      <trkpt lat="43.60558" lon="3.78047">
        <ele>57.5</ele>
        <time>2022-06-08T17:03:04.081Z</time>
      </trkpt>
      <trkpt lat="43.60575" lon="3.78127">
        <ele>58.5</ele>
        <time>2022-06-08T17:03:24.821Z</time>
      </trkpt>
      <trkpt lat="43.60579" lon="3.78139">
        <ele>58.3</ele>
        <time>2022-06-08T17:03:26.373Z</time>
        <extensions>
          <visugpx:TrkExtension xmlns:visugpx="https://www.visugpx.com/editgpx/">
            <visugpx:node>84</visugpx:node>
            </visugpx:TrkExtension>
        </extensions>
      </trkpt>
      <trkpt lat="43.60588" lon="3.78173">
        <ele>58.4</ele>
        <time>2022-06-08T17:03:34.289Z</time>
      </trkpt>
      <trkpt lat="43.60593" lon="3.78189">
        <ele>58.9</ele>
        <time>2022-06-08T17:03:40.062Z</time>
      </trkpt>
      <trkpt lat="43.60611" lon="3.7824">
        <ele>59</ele>
        <time>2022-06-08T17:03:52.307Z</time>
      </trkpt>
      <trkpt lat="43.60619" lon="3.78261">
        <ele>59.9</ele>
        <time>2022-06-08T17:04:01.202Z</time>
      </trkpt>
      <trkpt lat="43.60657" lon="3.78342">
        <ele>60.8</ele>
        <time>2022-06-08T17:04:24.292Z</time>
      </trkpt>
      <trkpt lat="43.60659" lon="3.78347">
        <ele>60.9</ele>
        <time>2022-06-08T17:04:25.841Z</time>
      </trkpt>
      <trkpt lat="43.60661" lon="3.78355">
        <ele>61</ele>
        <time>2022-06-08T17:04:27.940Z</time>
      </trkpt>
      <trkpt lat="43.60662" lon="3.78365">
        <ele>61.1</ele>
        <time>2022-06-08T17:04:30.376Z</time>
      </trkpt>
      <trkpt lat="43.6066" lon="3.78366">
        <ele>61.2</ele>
        <time>2022-06-08T17:04:31.439Z</time>
      </trkpt>
      <trkpt lat="43.60656" lon="3.78374">
        <ele>61.5</ele>
        <time>2022-06-08T17:04:34.804Z</time>
      </trkpt>
      <trkpt lat="43.60656" lon="3.78379">
        <ele>61.6</ele>
        <time>2022-06-08T17:04:36.216Z</time>
      </trkpt>
      <trkpt lat="43.60658" lon="3.78382">
        <ele>61.8</ele>
        <time>2022-06-08T17:04:37.919Z</time>
      </trkpt>
      <trkpt lat="43.60668" lon="3.7839">
        <ele>62</ele>
        <time>2022-06-08T17:04:41.921Z</time>
      </trkpt>
      <trkpt lat="43.60672" lon="3.78393">
        <ele>62</ele>
        <time>2022-06-08T17:04:43.248Z</time>
      </trkpt>
      <trkpt lat="43.60666" lon="3.78401">
        <ele>62</ele>
        <time>2022-06-08T17:04:45.678Z</time>
      </trkpt>
      <trkpt lat="43.60665" lon="3.78406">
        <ele>62</ele>
        <time>2022-06-08T17:04:46.773Z</time>
      </trkpt>
      <trkpt lat="43.60658" lon="3.78412">
        <ele>62.3</ele>
        <time>2022-06-08T17:04:50.376Z</time>
      </trkpt>
      <trkpt lat="43.60659" lon="3.78417">
        <ele>62.3</ele>
        <time>2022-06-08T17:04:51.470Z</time>
      </trkpt>
      <trkpt lat="43.60661" lon="3.78421">
        <ele>62.3</ele>
        <time>2022-06-08T17:04:52.496Z</time>
      </trkpt>
      <trkpt lat="43.60674" lon="3.78412">
        <ele>62</ele>
        <time>2022-06-08T17:04:54.863Z</time>
      </trkpt>
      <trkpt lat="43.60678" lon="3.78411">
        <ele>62</ele>
        <time>2022-06-08T17:04:56.048Z</time>
      </trkpt>
      <trkpt lat="43.60682" lon="3.78414">
        <ele>62</ele>
        <time>2022-06-08T17:04:57.374Z</time>
      </trkpt>
      <trkpt lat="43.60691" lon="3.78431">
        <ele>62.5</ele>
        <time>2022-06-08T17:05:03.726Z</time>
      </trkpt>
      <trkpt lat="43.60706" lon="3.78461">
        <ele>63</ele>
        <time>2022-06-08T17:05:13.034Z</time>
      </trkpt>
      <trkpt lat="43.6072" lon="3.7849">
        <ele>63</ele>
        <time>2022-06-08T17:05:20.389Z</time>
      </trkpt>
      <trkpt lat="43.60729" lon="3.78509">
        <ele>63.2</ele>
        <time>2022-06-08T17:05:25.781Z</time>
      </trkpt>
      <trkpt lat="43.60736" lon="3.78523">
        <ele>63.5</ele>
        <time>2022-06-08T17:05:30.402Z</time>
      </trkpt>
      <trkpt lat="43.60753" lon="3.7856">
        <ele>64</ele>
        <time>2022-06-08T17:05:41.208Z</time>
      </trkpt>
      <trkpt lat="43.60772" lon="3.78599">
        <ele>64.9</ele>
        <time>2022-06-08T17:05:54.298Z</time>
        <extensions>
          <visugpx:TrkExtension xmlns:visugpx="https://www.visugpx.com/editgpx/">
            <visugpx:node>85</visugpx:node>
            </visugpx:TrkExtension>
        </extensions>
      </trkpt>
      <trkpt lat="43.60777" lon="3.78608">
        <ele>65</ele>
        <time>2022-06-08T17:05:56.992Z</time>
      </trkpt>
      <trkpt lat="43.60782" lon="3.78623">
        <ele>65.1</ele>
        <time>2022-06-08T17:06:00.766Z</time>
      </trkpt>
      <trkpt lat="43.60791" lon="3.78639">
        <ele>65.5</ele>
        <time>2022-06-08T17:06:06.464Z</time>
      </trkpt>
      <trkpt lat="43.608" lon="3.78659">
        <ele>66.5</ele>
        <time>2022-06-08T17:06:15.675Z</time>
      </trkpt>
      <trkpt lat="43.60805" lon="3.78668">
        <ele>66.9</ele>
        <time>2022-06-08T17:06:19.825Z</time>
      </trkpt>
      <trkpt lat="43.60811" lon="3.78684">
        <ele>66.5</ele>
        <time>2022-06-08T17:06:21.727Z</time>
      </trkpt>
      <trkpt lat="43.60814" lon="3.78684">
        <ele>66.6</ele>
        <time>2022-06-08T17:06:22.985Z</time>
      </trkpt>
      <trkpt lat="43.60818" lon="3.78681">
        <ele>66.7</ele>
        <time>2022-06-08T17:06:24.646Z</time>
      </trkpt>
      <trkpt lat="43.60857" lon="3.78774">
        <ele>71.2</ele>
        <time>2022-06-08T17:07:06.444Z</time>
      </trkpt>
      <trkpt lat="43.60866" lon="3.78796">
        <ele>73.7</ele>
        <time>2022-06-08T17:07:27.010Z</time>
      </trkpt>
      <trkpt lat="43.60872" lon="3.78807">
        <ele>74.9</ele>
        <time>2022-06-08T17:07:36.435Z</time>
      </trkpt>
      <trkpt lat="43.60883" lon="3.78834">
        <ele>76.8</ele>
        <time>2022-06-08T17:07:51.230Z</time>
      </trkpt>
      <trkpt lat="43.60883" lon="3.78837">
        <ele>76.9</ele>
        <time>2022-06-08T17:07:52.309Z</time>
      </trkpt>
      <trkpt lat="43.60886" lon="3.78849">
        <ele>77.5</ele>
        <time>2022-06-08T17:07:57.514Z</time>
      </trkpt>
      <trkpt lat="43.60889" lon="3.78861">
        <ele>78</ele>
        <time>2022-06-08T17:08:02.337Z</time>
      </trkpt>
      <trkpt lat="43.60891" lon="3.78868">
        <ele>78.2</ele>
        <time>2022-06-08T17:08:04.729Z</time>
      </trkpt>
      <trkpt lat="43.60894" lon="3.78882">
        <ele>78.8</ele>
        <time>2022-06-08T17:08:10.366Z</time>
      </trkpt>
      <trkpt lat="43.60895" lon="3.78887">
        <ele>78.9</ele>
        <time>2022-06-08T17:08:11.813Z</time>
      </trkpt>
      <trkpt lat="43.60894" lon="3.78889">
        <ele>79</ele>
        <time>2022-06-08T17:08:12.752Z</time>
        <extensions>
          <visugpx:TrkExtension xmlns:visugpx="https://www.visugpx.com/editgpx/">
            <visugpx:node>86</visugpx:node>
            </visugpx:TrkExtension>
        </extensions>
      </trkpt>
      <trkpt lat="43.60893" lon="3.7889">
        <ele>79</ele>
        <time>2022-06-08T17:08:13.112Z</time>
      </trkpt>
      <trkpt lat="43.60891" lon="3.789">
        <ele>79</ele>
        <time>2022-06-08T17:08:15.301Z</time>
      </trkpt>
      <trkpt lat="43.60894" lon="3.7891">
        <ele>79.1</ele>
        <time>2022-06-08T17:08:17.887Z</time>
      </trkpt>
      <trkpt lat="43.60896" lon="3.78913">
        <ele>79.2</ele>
        <time>2022-06-08T17:08:19.135Z</time>
      </trkpt>
      <trkpt lat="43.60894" lon="3.78917">
        <ele>79.2</ele>
        <time>2022-06-08T17:08:20.160Z</time>
      </trkpt>
      <trkpt lat="43.60891" lon="3.78923">
        <ele>79.3</ele>
        <time>2022-06-08T17:08:22.022Z</time>
      </trkpt>
      <trkpt lat="43.6089" lon="3.78925">
        <ele>79.3</ele>
        <time>2022-06-08T17:08:22.535Z</time>
      </trkpt>
      <trkpt lat="43.60888" lon="3.7893">
        <ele>79.5</ele>
        <time>2022-06-08T17:08:24.620Z</time>
      </trkpt>
      <trkpt lat="43.60886" lon="3.7894">
        <ele>79.8</ele>
        <time>2022-06-08T17:08:28.072Z</time>
      </trkpt>
      <trkpt lat="43.60885" lon="3.78944">
        <ele>79.8</ele>
        <time>2022-06-08T17:08:28.965Z</time>
      </trkpt>
      <trkpt lat="43.60876" lon="3.7895">
        <ele>79.7</ele>
        <time>2022-06-08T17:08:30.821Z</time>
      </trkpt>
      <trkpt lat="43.60853" lon="3.79068">
        <ele>77.7</ele>
        <time>2022-06-08T17:08:44.900Z</time>
      </trkpt>
      <trkpt lat="43.60841" lon="3.79164">
        <ele>74.9</ele>
        <time>2022-06-08T17:08:54.296Z</time>
      </trkpt>
      <trkpt lat="43.60838" lon="3.79212">
        <ele>71</ele>
        <time>2022-06-08T17:08:58.332Z</time>
        <extensions>
          <visugpx:TrkExtension xmlns:visugpx="https://www.visugpx.com/editgpx/">
            <visugpx:node>87</visugpx:node>
            </visugpx:TrkExtension>
        </extensions>
      </trkpt>
      <trkpt lat="43.60837" lon="3.79229">
        <ele>69.8</ele>
        <time>2022-06-08T17:08:59.760Z</time>
      </trkpt>
      <trkpt lat="43.60836" lon="3.79255">
        <ele>68.9</ele>
        <time>2022-06-08T17:09:02.093Z</time>
      </trkpt>
      <trkpt lat="43.60835" lon="3.79312">
        <ele>67.1</ele>
        <time>2022-06-08T17:09:07.395Z</time>
      </trkpt>
      <trkpt lat="43.60846" lon="3.79456">
        <ele>62.6</ele>
        <time>2022-06-08T17:09:20.944Z</time>
      </trkpt>
      <trkpt lat="43.60863" lon="3.79564">
        <ele>58.8</ele>
        <time>2022-06-08T17:09:30.868Z</time>
      </trkpt>
      <trkpt lat="43.60885" lon="3.79671">
        <ele>54.9</ele>
        <time>2022-06-08T17:09:40.772Z</time>
        <extensions>
          <visugpx:TrkExtension xmlns:visugpx="https://www.visugpx.com/editgpx/">
            <visugpx:node>88</visugpx:node>
            </visugpx:TrkExtension>
        </extensions>
      </trkpt>
      <trkpt lat="43.60888" lon="3.79687">
        <ele>54.3</ele>
        <time>2022-06-08T17:09:42.222Z</time>
      </trkpt>
      <trkpt lat="43.60891" lon="3.79717">
        <ele>54</ele>
        <time>2022-06-08T17:09:46.105Z</time>
      </trkpt>
      <trkpt lat="43.60903" lon="3.79752">
        <ele>52.5</ele>
        <time>2022-06-08T17:09:49.406Z</time>
      </trkpt>
      <trkpt lat="43.60927" lon="3.79868">
        <ele>49.8</ele>
        <time>2022-06-08T17:10:02.105Z</time>
      </trkpt>
      <trkpt lat="43.6093" lon="3.79879">
        <ele>49.7</ele>
        <time>2022-06-08T17:10:03.650Z</time>
      </trkpt>
      <trkpt lat="43.60935" lon="3.79889">
        <ele>49.7</ele>
        <time>2022-06-08T17:10:06.214Z</time>
      </trkpt>
      <trkpt lat="43.60937" lon="3.79894">
        <ele>49.5</ele>
        <time>2022-06-08T17:10:06.723Z</time>
      </trkpt>
      <trkpt lat="43.60956" lon="3.79986">
        <ele>44.7</ele>
        <time>2022-06-08T17:10:14.737Z</time>
      </trkpt>
      <trkpt lat="43.60964" lon="3.80034">
        <ele>47</ele>
        <time>2022-06-08T17:10:34.817Z</time>
      </trkpt>
      <trkpt lat="43.60971" lon="3.80072">
        <ele>46.9</ele>
        <time>2022-06-08T17:10:42.667Z</time>
        <extensions>
          <visugpx:TrkExtension xmlns:visugpx="https://www.visugpx.com/editgpx/">
            <visugpx:node>89</visugpx:node>
            </visugpx:TrkExtension>
        </extensions>
      </trkpt>
      <trkpt lat="43.60973" lon="3.8008">
        <ele>47</ele>
        <time>2022-06-08T17:10:44.766Z</time>
      </trkpt>
      <trkpt lat="43.60985" lon="3.80132">
        <ele>47.2</ele>
        <time>2022-06-08T17:10:56.843Z</time>
      </trkpt>
      <trkpt lat="43.61014" lon="3.8027">
        <ele>49</ele>
        <time>2022-06-08T17:11:32.873Z</time>
      </trkpt>
      <trkpt lat="43.61022" lon="3.80302">
        <ele>50.3</ele>
        <time>2022-06-08T17:11:45.618Z</time>
      </trkpt>
      <trkpt lat="43.61028" lon="3.80325">
        <ele>48.2</ele>
        <time>2022-06-08T17:11:47.665Z</time>
      </trkpt>
      <trkpt lat="43.61043" lon="3.80374">
        <ele>47.4</ele>
        <time>2022-06-08T17:11:53.925Z</time>
      </trkpt>
      <trkpt lat="43.6109" lon="3.80484">
        <ele>49.9</ele>
        <time>2022-06-08T17:12:29.746Z</time>
      </trkpt>
      <trkpt lat="43.61096" lon="3.80496">
        <ele>50</ele>
        <time>2022-06-08T17:12:33.115Z</time>
      </trkpt>
      <trkpt lat="43.61099" lon="3.80492">
        <ele>50.3</ele>
        <time>2022-06-08T17:12:35.597Z</time>
      </trkpt>
      <trkpt lat="43.61107" lon="3.80509">
        <ele>50.4</ele>
        <time>2022-06-08T17:12:40.160Z</time>
        <extensions>
          <visugpx:TrkExtension xmlns:visugpx="https://www.visugpx.com/editgpx/">
            <visugpx:node>90</visugpx:node>
            </visugpx:TrkExtension>
        </extensions>
      </trkpt>
      <trkpt lat="43.61119" lon="3.80532">
        <ele>50.1</ele>
        <time>2022-06-08T17:12:43.752Z</time>
      </trkpt>
      <trkpt lat="43.61136" lon="3.80566">
        <ele>49.9</ele>
        <time>2022-06-08T17:12:51.661Z</time>
      </trkpt>
      <trkpt lat="43.61199" lon="3.80692">
        <ele>49.3</ele>
        <time>2022-06-08T17:13:21.497Z</time>
      </trkpt>
      <trkpt lat="43.61232" lon="3.80768">
        <ele>49.5</ele>
        <time>2022-06-08T17:13:40.745Z</time>
      </trkpt>
      <trkpt lat="43.61233" lon="3.80782">
        <ele>49.3</ele>
        <time>2022-06-08T17:13:42.423Z</time>
      </trkpt>
      <trkpt lat="43.61234" lon="3.80787">
        <ele>49.2</ele>
        <time>2022-06-08T17:13:42.994Z</time>
        <extensions>
          <visugpx:TrkExtension xmlns:visugpx="https://www.visugpx.com/editgpx/">
            <visugpx:node>91</visugpx:node>
            </visugpx:TrkExtension>
        </extensions>
      </trkpt>
      <trkpt lat="43.61234" lon="3.8079">
        <ele>49.2</ele>
        <time>2022-06-08T17:13:43.627Z</time>
      </trkpt>
      <trkpt lat="43.61233" lon="3.80795">
        <ele>49</ele>
        <time>2022-06-08T17:13:44.070Z</time>
      </trkpt>
      <trkpt lat="43.61233" lon="3.808">
        <ele>48.9</ele>
        <time>2022-06-08T17:13:44.615Z</time>
      </trkpt>
      <trkpt lat="43.61236" lon="3.80806">
        <ele>49</ele>
        <time>2022-06-08T17:13:46.477Z</time>
      </trkpt>
      <trkpt lat="43.61238" lon="3.80809">
        <ele>49.1</ele>
        <time>2022-06-08T17:13:47.724Z</time>
      </trkpt>
      <trkpt lat="43.61241" lon="3.80811">
        <ele>49.2</ele>
        <time>2022-06-08T17:13:49.063Z</time>
      </trkpt>
      <trkpt lat="43.6125" lon="3.80827">
        <ele>49.2</ele>
        <time>2022-06-08T17:13:53.338Z</time>
      </trkpt>
      <trkpt lat="43.61262" lon="3.80847">
        <ele>49.7</ele>
        <time>2022-06-08T17:14:00.583Z</time>
      </trkpt>
      <trkpt lat="43.61272" lon="3.80872">
        <ele>49.5</ele>
        <time>2022-06-08T17:14:04.441Z</time>
      </trkpt>
      <trkpt lat="43.61282" lon="3.80898">
        <ele>49.3</ele>
        <time>2022-06-08T17:14:08.434Z</time>
      </trkpt>
      <trkpt lat="43.61285" lon="3.80909">
        <ele>49.3</ele>
        <time>2022-06-08T17:14:10.914Z</time>
      </trkpt>
      <trkpt lat="43.61288" lon="3.80919">
        <ele>49.3</ele>
        <time>2022-06-08T17:14:13.198Z</time>
      </trkpt>
      <trkpt lat="43.6129" lon="3.80927">
        <ele>49.2</ele>
        <time>2022-06-08T17:14:14.248Z</time>
        <extensions>
          <visugpx:TrkExtension xmlns:visugpx="https://www.visugpx.com/editgpx/">
            <visugpx:node>92</visugpx:node>
            </visugpx:TrkExtension>
        </extensions>
      </trkpt>
      <trkpt lat="43.61299" lon="3.80964">
        <ele>49</ele>
        <time>2022-06-08T17:14:21.678Z</time>
      </trkpt>
      <trkpt lat="43.61308" lon="3.81009">
        <ele>47.7</ele>
        <time>2022-06-08T17:14:26.234Z</time>
      </trkpt>
      <trkpt lat="43.61311" lon="3.81027">
        <ele>47</ele>
        <time>2022-06-08T17:14:27.824Z</time>
      </trkpt>
      <trkpt lat="43.61319" lon="3.81064">
        <ele>47.3</ele>
        <time>2022-06-08T17:14:36.860Z</time>
      </trkpt>
      <trkpt lat="43.61326" lon="3.81098">
        <ele>46.7</ele>
        <time>2022-06-08T17:14:40.893Z</time>
        <extensions>
          <visugpx:TrkExtension xmlns:visugpx="https://www.visugpx.com/editgpx/">
            <visugpx:node>93</visugpx:node>
            </visugpx:TrkExtension>
        </extensions>
      </trkpt>
      <trkpt lat="43.61326" lon="3.81102">
        <ele>46.5</ele>
        <time>2022-06-08T17:14:41.228Z</time>
      </trkpt>
      <trkpt lat="43.61331" lon="3.8111">
        <ele>46.1</ele>
        <time>2022-06-08T17:14:42.138Z</time>
      </trkpt>
      <trkpt lat="43.61383" lon="3.81263">
        <ele>45.1</ele>
        <time>2022-06-08T17:14:44.297Z</time>
      </trkpt>
      <trkpt lat="43.614" lon="3.81319">
        <ele>43.9</ele>
      </trkpt>
      <trkpt lat="43.6141" lon="3.81422">
        <ele>41</ele>
      </trkpt>
      <trkpt lat="43.61417" lon="3.81565">
        <ele>37.3</ele>
        <time>2022-06-08T17:16:10.885Z</time>
      </trkpt>
      <trkpt lat="43.61463" lon="3.81546">
        <ele>38.3</ele>
        <time>2022-06-08T17:16:12.815Z</time>
      </trkpt>
      <trkpt lat="43.61488" lon="3.81622">
        <ele>36.8</ele>
        <time>2022-06-08T17:16:16.948Z</time>
      </trkpt>
      <trkpt lat="43.615" lon="3.81622">
        <ele>38</ele>
        <time>2022-06-08T17:16:23.046Z</time>
      </trkpt>
      <trkpt lat="43.61502" lon="3.8162">
        <ele>38</ele>
        <time>2022-06-08T17:16:23.766Z</time>
      </trkpt>
      <trkpt lat="43.61521" lon="3.8169">
        <ele>33.3</ele>
        <time>2022-06-08T17:16:30.027Z</time>
      </trkpt>
      <trkpt lat="43.61539" lon="3.81756">
        <ele>36.5</ele>
        <time>2022-06-08T17:16:58.402Z</time>
      </trkpt>
      <trkpt lat="43.61554" lon="3.81808">
        <ele>37.1</ele>
        <time>2022-06-08T17:17:12.066Z</time>
      </trkpt>
      <trkpt lat="43.61555" lon="3.81815">
        <ele>37.3</ele>
        <time>2022-06-08T17:17:14.398Z</time>
      </trkpt>
      <trkpt lat="43.61559" lon="3.81827">
        <ele>37.6</ele>
        <time>2022-06-08T17:17:18.309Z</time>
      </trkpt>
      <trkpt lat="43.61563" lon="3.81835">
        <ele>37.7</ele>
      </trkpt>
      <trkpt lat="43.61563" lon="3.81841">
        <ele>37.5</ele>
        <time>2022-06-08T17:17:19.570Z</time>
      </trkpt>
      <trkpt lat="43.61566" lon="3.81847">
        <ele>37.3</ele>
        <time>2022-06-08T17:17:19.942Z</time>
      </trkpt>
      <trkpt lat="43.61568" lon="3.81856">
        <ele>37.1</ele>
        <time>2022-06-08T17:17:22.422Z</time>
      </trkpt>
      <trkpt lat="43.6157" lon="3.8187">
        <ele>37.5</ele>
        <time>2022-06-08T17:17:23.614Z</time>
      </trkpt>
      <trkpt lat="43.61576" lon="3.81885">
        <ele>38.5</ele>
        <time>2022-06-08T17:17:32.018Z</time>
      </trkpt>
      <trkpt lat="43.61585" lon="3.81925">
        <ele>39</ele>
        <time>2022-06-08T17:17:36.509Z</time>
        <extensions>
          <visugpx:TrkExtension xmlns:visugpx="https://www.visugpx.com/editgpx/">
            <visugpx:node>97</visugpx:node>
            </visugpx:TrkExtension>
        </extensions>
      </trkpt>
    </trkseg>
  </trk>
</gpx>